<?xml version="1.0" encoding="UTF-8" standalone="no" ?>
<gpx xmlns="http://www.topografix.com/GPX/1/1" xmlns:xsi="http://www.w3.org/2001/XMLSchema-instance" xsi:schemaLocation="http://www.topografix.com/GPX/1/1 http://www.topografix.com/GPX/1/1/gpx.xsd" version="1.1" creator="VisuGPX - https://www.visugpx.com">
  <metadata>
    <name>CYCLO Entre Durance et Grand Vallon (04)</name>
    <desc><![CDATA[Les hautes terres de  Provence authentiques par de très petites routes désertes : vieux petits villages typiques et  jolies fermes provençales anciennes  isolées . Un paysage intact et  sublime avec une atmosphère unique en fin d\'hiver . Un gros raidillon antre Nibles et Clans à plus de 10% sur 2 km  agrémente cet itinéraire en bosses et creux ]]></desc>
  </metadata>
  <trk>
    <name><![CDATA[ACTIVE LOG 004]]></name>
    <trkseg>
      <trkpt lat="44.38516" lon="5.94249">
        <ele>471.6639404</ele>
        <time>2012-02-28T09:36:06Z</time>
      </trkpt>
      <trkpt lat="44.38519" lon="5.94254">
        <ele>475.9898682</ele>
        <time>2012-02-28T09:36:37Z</time>
      </trkpt>
      <trkpt lat="44.38519" lon="5.94254">
        <ele>478.8739014</ele>
        <time>2012-02-28T09:36:38Z</time>
      </trkpt>
      <trkpt lat="44.38519" lon="5.94254">
        <ele>484.6418457</ele>
        <time>2012-02-28T09:36:40Z</time>
      </trkpt>
      <trkpt lat="44.38519" lon="5.94254">
        <ele>488.0064697</ele>
        <time>2012-02-28T09:36:41Z</time>
      </trkpt>
      <trkpt lat="44.38519" lon="5.94254">
        <ele>493.2935791</ele>
        <time>2012-02-28T09:36:43Z</time>
      </trkpt>
      <trkpt lat="44.38519" lon="5.94254">
        <ele>498.1003418</ele>
        <time>2012-02-28T09:36:45Z</time>
      </trkpt>
      <trkpt lat="44.38519" lon="5.94254">
        <ele>502.9067383</ele>
        <time>2012-02-28T09:36:47Z</time>
      </trkpt>
      <trkpt lat="44.38519" lon="5.94254">
        <ele>507.713501</ele>
        <time>2012-02-28T09:36:49Z</time>
      </trkpt>
      <trkpt lat="44.38519" lon="5.94254">
        <ele>512.0394287</ele>
        <time>2012-02-28T09:36:51Z</time>
      </trkpt>
      <trkpt lat="44.38519" lon="5.94254">
        <ele>515.4040527</ele>
        <time>2012-02-28T09:36:53Z</time>
      </trkpt>
      <trkpt lat="44.38519" lon="5.94254">
        <ele>519.7298584</ele>
        <time>2012-02-28T09:36:55Z</time>
      </trkpt>
      <trkpt lat="44.38519" lon="5.94254">
        <ele>523.0946045</ele>
        <time>2012-02-28T09:36:57Z</time>
      </trkpt>
      <trkpt lat="44.38519" lon="5.94254">
        <ele>527.4204102</ele>
        <time>2012-02-28T09:37:00Z</time>
      </trkpt>
      <trkpt lat="44.38519" lon="5.94254">
        <ele>531.2657471</ele>
        <time>2012-02-28T09:37:03Z</time>
      </trkpt>
      <trkpt lat="44.38519" lon="5.94254">
        <ele>534.1496582</ele>
        <time>2012-02-28T09:37:05Z</time>
      </trkpt>
      <trkpt lat="44.38519" lon="5.94254">
        <ele>537.5142822</ele>
        <time>2012-02-28T09:37:08Z</time>
      </trkpt>
      <trkpt lat="44.38519" lon="5.94254">
        <ele>541.3594971</ele>
        <time>2012-02-28T09:37:11Z</time>
      </trkpt>
      <trkpt lat="44.38519" lon="5.94254">
        <ele>545.204834</ele>
        <time>2012-02-28T09:37:15Z</time>
      </trkpt>
      <trkpt lat="44.38519" lon="5.94254">
        <ele>548.5693359</ele>
        <time>2012-02-28T09:37:19Z</time>
      </trkpt>
      <trkpt lat="44.38519" lon="5.94254">
        <ele>551.934082</ele>
        <time>2012-02-28T09:37:24Z</time>
      </trkpt>
      <trkpt lat="44.38519" lon="5.94254">
        <ele>551.934082</ele>
        <time>2012-02-28T09:37:25Z</time>
      </trkpt>
      <trkpt lat="44.38519" lon="5.94254">
        <ele>554.3374023</ele>
        <time>2012-02-28T09:37:28Z</time>
      </trkpt>
      <trkpt lat="44.38519" lon="5.94254">
        <ele>557.2214355</ele>
        <time>2012-02-28T09:37:33Z</time>
      </trkpt>
      <trkpt lat="44.38519" lon="5.94254">
        <ele>561.0666504</ele>
        <time>2012-02-28T09:37:42Z</time>
      </trkpt>
      <trkpt lat="44.38519" lon="5.94251">
        <ele>563.9504395</ele>
        <time>2012-02-28T09:37:54Z</time>
      </trkpt>
      <trkpt lat="44.38518" lon="5.9425">
        <ele>566.8344727</ele>
        <time>2012-02-28T09:38:22Z</time>
      </trkpt>
      <trkpt lat="44.38518" lon="5.9425">
        <ele>567.7956543</ele>
        <time>2012-02-28T09:38:32Z</time>
      </trkpt>
      <trkpt lat="44.3851" lon="5.94246">
        <ele>568.2763672</ele>
        <time>2012-02-28T09:38:36Z</time>
      </trkpt>
      <trkpt lat="44.38504" lon="5.94245">
        <ele>568.2763672</ele>
        <time>2012-02-28T09:38:38Z</time>
      </trkpt>
      <trkpt lat="44.38494" lon="5.94249">
        <ele>567.7956543</ele>
        <time>2012-02-28T09:38:43Z</time>
      </trkpt>
      <trkpt lat="44.38478" lon="5.94278">
        <ele>566.8344727</ele>
        <time>2012-02-28T09:38:53Z</time>
      </trkpt>
      <trkpt lat="44.3847" lon="5.94281">
        <ele>566.3537598</ele>
        <time>2012-02-28T09:38:55Z</time>
      </trkpt>
      <trkpt lat="44.38445" lon="5.94273">
        <ele>565.3925781</ele>
        <time>2012-02-28T09:39:01Z</time>
      </trkpt>
      <trkpt lat="44.38396" lon="5.9424">
        <ele>562.5085449</ele>
        <time>2012-02-28T09:39:11Z</time>
      </trkpt>
      <trkpt lat="44.38376" lon="5.94218">
        <ele>562.0280762</ele>
        <time>2012-02-28T09:39:15Z</time>
      </trkpt>
      <trkpt lat="44.38358" lon="5.9417">
        <ele>559.6247559</ele>
        <time>2012-02-28T09:39:20Z</time>
      </trkpt>
      <trkpt lat="44.38317" lon="5.94143">
        <ele>557.2214355</ele>
        <time>2012-02-28T09:39:27Z</time>
      </trkpt>
      <trkpt lat="44.38308" lon="5.94155">
        <ele>557.2214355</ele>
        <time>2012-02-28T09:39:29Z</time>
      </trkpt>
      <trkpt lat="44.38298" lon="5.94169">
        <ele>556.7407227</ele>
        <time>2012-02-28T09:39:31Z</time>
      </trkpt>
      <trkpt lat="44.38225" lon="5.94317">
        <ele>553.3759766</ele>
        <time>2012-02-28T09:39:49Z</time>
      </trkpt>
      <trkpt lat="44.38137" lon="5.94406">
        <ele>552.8952637</ele>
        <time>2012-02-28T09:40:06Z</time>
      </trkpt>
      <trkpt lat="44.38094" lon="5.94444">
        <ele>553.3759766</ele>
        <time>2012-02-28T09:40:16Z</time>
      </trkpt>
      <trkpt lat="44.38069" lon="5.94469">
        <ele>554.3374023</ele>
        <time>2012-02-28T09:40:23Z</time>
      </trkpt>
      <trkpt lat="44.3803" lon="5.94593">
        <ele>554.8178711</ele>
        <time>2012-02-28T09:40:45Z</time>
      </trkpt>
      <trkpt lat="44.38018" lon="5.94633">
        <ele>554.8178711</ele>
        <time>2012-02-28T09:40:52Z</time>
      </trkpt>
      <trkpt lat="44.37988" lon="5.94658">
        <ele>554.8178711</ele>
        <time>2012-02-28T09:41:00Z</time>
      </trkpt>
      <trkpt lat="44.37925" lon="5.94693">
        <ele>557.2214355</ele>
        <time>2012-02-28T09:41:20Z</time>
      </trkpt>
      <trkpt lat="44.37892" lon="5.94744">
        <ele>559.144043</ele>
        <time>2012-02-28T09:41:37Z</time>
      </trkpt>
      <trkpt lat="44.37856" lon="5.94781">
        <ele>562.0280762</ele>
        <time>2012-02-28T09:41:54Z</time>
      </trkpt>
      <trkpt lat="44.37833" lon="5.94821">
        <ele>564.4311523</ele>
        <time>2012-02-28T09:42:09Z</time>
      </trkpt>
      <trkpt lat="44.37828" lon="5.94892">
        <ele>567.7956543</ele>
        <time>2012-02-28T09:42:28Z</time>
      </trkpt>
      <trkpt lat="44.37819" lon="5.94947">
        <ele>571.1604004</ele>
        <time>2012-02-28T09:42:45Z</time>
      </trkpt>
      <trkpt lat="44.37808" lon="5.95005">
        <ele>574.0444336</ele>
        <time>2012-02-28T09:43:03Z</time>
      </trkpt>
      <trkpt lat="44.37777" lon="5.9505">
        <ele>576.9284668</ele>
        <time>2012-02-28T09:43:21Z</time>
      </trkpt>
      <trkpt lat="44.37715" lon="5.9508">
        <ele>579.331543</ele>
        <time>2012-02-28T09:43:46Z</time>
      </trkpt>
      <trkpt lat="44.37655" lon="5.95107">
        <ele>582.6962891</ele>
        <time>2012-02-28T09:44:11Z</time>
      </trkpt>
      <trkpt lat="44.37638" lon="5.95115">
        <ele>583.1767578</ele>
        <time>2012-02-28T09:44:18Z</time>
      </trkpt>
      <trkpt lat="44.37568" lon="5.95146">
        <ele>585.0996094</ele>
        <time>2012-02-28T09:44:46Z</time>
      </trkpt>
      <trkpt lat="44.37553" lon="5.9515">
        <ele>585.0996094</ele>
        <time>2012-02-28T09:44:50Z</time>
      </trkpt>
      <trkpt lat="44.37541" lon="5.95145">
        <ele>585.5800781</ele>
        <time>2012-02-28T09:44:53Z</time>
      </trkpt>
      <trkpt lat="44.37476" lon="5.95116">
        <ele>585.0996094</ele>
        <time>2012-02-28T09:45:11Z</time>
      </trkpt>
      <trkpt lat="44.37436" lon="5.95064">
        <ele>586.5415039</ele>
        <time>2012-02-28T09:45:29Z</time>
      </trkpt>
      <trkpt lat="44.37393" lon="5.95019">
        <ele>588.4643555</ele>
        <time>2012-02-28T09:45:51Z</time>
      </trkpt>
      <trkpt lat="44.37373" lon="5.95025">
        <ele>589.90625</ele>
        <time>2012-02-28T09:46:00Z</time>
      </trkpt>
      <trkpt lat="44.3734" lon="5.95004">
        <ele>592.7902832</ele>
        <time>2012-02-28T09:46:16Z</time>
      </trkpt>
      <trkpt lat="44.3732" lon="5.9498">
        <ele>595.1933594</ele>
        <time>2012-02-28T09:46:32Z</time>
      </trkpt>
      <trkpt lat="44.37311" lon="5.9498">
        <ele>595.6740723</ele>
        <time>2012-02-28T09:46:37Z</time>
      </trkpt>
      <trkpt lat="44.37307" lon="5.95012">
        <ele>598.0773926</ele>
        <time>2012-02-28T09:46:50Z</time>
      </trkpt>
      <trkpt lat="44.3734" lon="5.9505">
        <ele>601.4418945</ele>
        <time>2012-02-28T09:47:12Z</time>
      </trkpt>
      <trkpt lat="44.37373" lon="5.95067">
        <ele>603.8452148</ele>
        <time>2012-02-28T09:47:30Z</time>
      </trkpt>
      <trkpt lat="44.37376" lon="5.9509">
        <ele>605.2873535</ele>
        <time>2012-02-28T09:47:38Z</time>
      </trkpt>
      <trkpt lat="44.37368" lon="5.95096">
        <ele>606.729248</ele>
        <time>2012-02-28T09:47:43Z</time>
      </trkpt>
      <trkpt lat="44.3733" lon="5.95077">
        <ele>609.6132813</ele>
        <time>2012-02-28T09:48:02Z</time>
      </trkpt>
      <trkpt lat="44.37306" lon="5.95096">
        <ele>612.0166016</ele>
        <time>2012-02-28T09:48:18Z</time>
      </trkpt>
      <trkpt lat="44.37294" lon="5.95151">
        <ele>614.4196777</ele>
        <time>2012-02-28T09:48:40Z</time>
      </trkpt>
      <trkpt lat="44.3727" lon="5.95201">
        <ele>617.7841797</ele>
        <time>2012-02-28T09:49:00Z</time>
      </trkpt>
      <trkpt lat="44.37254" lon="5.9525">
        <ele>619.7070313</ele>
        <time>2012-02-28T09:49:20Z</time>
      </trkpt>
      <trkpt lat="44.37226" lon="5.95264">
        <ele>622.1103516</ele>
        <time>2012-02-28T09:49:33Z</time>
      </trkpt>
      <trkpt lat="44.37193" lon="5.95279">
        <ele>624.032959</ele>
        <time>2012-02-28T09:49:51Z</time>
      </trkpt>
      <trkpt lat="44.37184" lon="5.95293">
        <ele>625.4748535</ele>
        <time>2012-02-28T09:49:58Z</time>
      </trkpt>
      <trkpt lat="44.37185" lon="5.9535">
        <ele>627.8781738</ele>
        <time>2012-02-28T09:50:18Z</time>
      </trkpt>
      <trkpt lat="44.37195" lon="5.95422">
        <ele>630.2814941</ele>
        <time>2012-02-28T09:50:41Z</time>
      </trkpt>
      <trkpt lat="44.37191" lon="5.95463">
        <ele>632.6848145</ele>
        <time>2012-02-28T09:50:56Z</time>
      </trkpt>
      <trkpt lat="44.37186" lon="5.9551">
        <ele>636.0495605</ele>
        <time>2012-02-28T09:51:14Z</time>
      </trkpt>
      <trkpt lat="44.37181" lon="5.95557">
        <ele>639.4140625</ele>
        <time>2012-02-28T09:51:32Z</time>
      </trkpt>
      <trkpt lat="44.37177" lon="5.95601">
        <ele>642.7788086</ele>
        <time>2012-02-28T09:51:49Z</time>
      </trkpt>
      <trkpt lat="44.3717" lon="5.95644">
        <ele>645.6625977</ele>
        <time>2012-02-28T09:52:07Z</time>
      </trkpt>
      <trkpt lat="44.37191" lon="5.95676">
        <ele>648.065918</ele>
        <time>2012-02-28T09:52:23Z</time>
      </trkpt>
      <trkpt lat="44.37212" lon="5.95674">
        <ele>649.9885254</ele>
        <time>2012-02-28T09:52:35Z</time>
      </trkpt>
      <trkpt lat="44.37234" lon="5.95706">
        <ele>652.3918457</ele>
        <time>2012-02-28T09:52:53Z</time>
      </trkpt>
      <trkpt lat="44.37227" lon="5.95745">
        <ele>653.3532715</ele>
        <time>2012-02-28T09:53:07Z</time>
      </trkpt>
      <trkpt lat="44.372" lon="5.95762">
        <ele>655.7565918</ele>
        <time>2012-02-28T09:53:23Z</time>
      </trkpt>
      <trkpt lat="44.37167" lon="5.95758">
        <ele>658.6403809</ele>
        <time>2012-02-28T09:53:41Z</time>
      </trkpt>
      <trkpt lat="44.3717" lon="5.95798">
        <ele>661.0437012</ele>
        <time>2012-02-28T09:53:57Z</time>
      </trkpt>
      <trkpt lat="44.37198" lon="5.95826">
        <ele>663.9274902</ele>
        <time>2012-02-28T09:54:14Z</time>
      </trkpt>
      <trkpt lat="44.37206" lon="5.95867">
        <ele>666.8115234</ele>
        <time>2012-02-28T09:54:31Z</time>
      </trkpt>
      <trkpt lat="44.37186" lon="5.95908">
        <ele>669.6958008</ele>
        <time>2012-02-28T09:54:51Z</time>
      </trkpt>
      <trkpt lat="44.37175" lon="5.95925">
        <ele>671.1376953</ele>
        <time>2012-02-28T09:55:00Z</time>
      </trkpt>
      <trkpt lat="44.37149" lon="5.95968">
        <ele>674.0214844</ele>
        <time>2012-02-28T09:55:21Z</time>
      </trkpt>
      <trkpt lat="44.37123" lon="5.96015">
        <ele>676.9055176</ele>
        <time>2012-02-28T09:55:44Z</time>
      </trkpt>
      <trkpt lat="44.37092" lon="5.96036">
        <ele>679.7893066</ele>
        <time>2012-02-28T09:56:02Z</time>
      </trkpt>
      <trkpt lat="44.37066" lon="5.9606">
        <ele>682.192627</ele>
        <time>2012-02-28T09:56:20Z</time>
      </trkpt>
      <trkpt lat="44.37077" lon="5.96108">
        <ele>684.5961914</ele>
        <time>2012-02-28T09:56:39Z</time>
      </trkpt>
      <trkpt lat="44.37087" lon="5.96162">
        <ele>686.9992676</ele>
        <time>2012-02-28T09:57:01Z</time>
      </trkpt>
      <trkpt lat="44.37081" lon="5.96167">
        <ele>688.4414063</ele>
        <time>2012-02-28T09:57:04Z</time>
      </trkpt>
      <trkpt lat="44.37071" lon="5.96156">
        <ele>690.3640137</ele>
        <time>2012-02-28T09:57:11Z</time>
      </trkpt>
      <trkpt lat="44.37056" lon="5.96123">
        <ele>691.8059082</ele>
        <time>2012-02-28T09:57:26Z</time>
      </trkpt>
      <trkpt lat="44.37027" lon="5.96081">
        <ele>695.1704102</ele>
        <time>2012-02-28T09:57:48Z</time>
      </trkpt>
      <trkpt lat="44.37003" lon="5.96044">
        <ele>697.5737305</ele>
        <time>2012-02-28T09:58:08Z</time>
      </trkpt>
      <trkpt lat="44.36998" lon="5.95997">
        <ele>700.4580078</ele>
        <time>2012-02-28T09:58:26Z</time>
      </trkpt>
      <trkpt lat="44.37026" lon="5.95949">
        <ele>701.4191895</ele>
        <time>2012-02-28T09:58:47Z</time>
      </trkpt>
      <trkpt lat="44.37052" lon="5.95902">
        <ele>702.3803711</ele>
        <time>2012-02-28T09:59:06Z</time>
      </trkpt>
      <trkpt lat="44.3705" lon="5.95895">
        <ele>702.861084</ele>
        <time>2012-02-28T09:59:08Z</time>
      </trkpt>
      <trkpt lat="44.37037" lon="5.9589">
        <ele>703.8225098</ele>
        <time>2012-02-28T09:59:15Z</time>
      </trkpt>
      <trkpt lat="44.37004" lon="5.95913">
        <ele>707.1870117</ele>
        <time>2012-02-28T09:59:34Z</time>
      </trkpt>
      <trkpt lat="44.36971" lon="5.95916">
        <ele>710.0708008</ele>
        <time>2012-02-28T09:59:52Z</time>
      </trkpt>
      <trkpt lat="44.36964" lon="5.95916">
        <ele>710.5515137</ele>
        <time>2012-02-28T09:59:56Z</time>
      </trkpt>
      <trkpt lat="44.36957" lon="5.95916">
        <ele>711.9936523</ele>
        <time>2012-02-28T10:00:00Z</time>
      </trkpt>
      <trkpt lat="44.36926" lon="5.95914">
        <ele>713.9160156</ele>
        <time>2012-02-28T10:00:18Z</time>
      </trkpt>
      <trkpt lat="44.36892" lon="5.95919">
        <ele>717.2810059</ele>
        <time>2012-02-28T10:00:37Z</time>
      </trkpt>
      <trkpt lat="44.36864" lon="5.95929">
        <ele>720.1647949</ele>
        <time>2012-02-28T10:00:53Z</time>
      </trkpt>
      <trkpt lat="44.36838" lon="5.95936">
        <ele>722.0874023</ele>
        <time>2012-02-28T10:01:10Z</time>
      </trkpt>
      <trkpt lat="44.36811" lon="5.95971">
        <ele>725.4519043</ele>
        <time>2012-02-28T10:01:32Z</time>
      </trkpt>
      <trkpt lat="44.36822" lon="5.96021">
        <ele>728.3359375</ele>
        <time>2012-02-28T10:01:53Z</time>
      </trkpt>
      <trkpt lat="44.36814" lon="5.96069">
        <ele>731.2199707</ele>
        <time>2012-02-28T10:02:13Z</time>
      </trkpt>
      <trkpt lat="44.36809" lon="5.96113">
        <ele>733.623291</ele>
        <time>2012-02-28T10:02:31Z</time>
      </trkpt>
      <trkpt lat="44.3684" lon="5.96159">
        <ele>736.5073242</ele>
        <time>2012-02-28T10:02:53Z</time>
      </trkpt>
      <trkpt lat="44.36851" lon="5.96199">
        <ele>738.9106445</ele>
        <time>2012-02-28T10:03:11Z</time>
      </trkpt>
      <trkpt lat="44.36824" lon="5.96226">
        <ele>741.7944336</ele>
        <time>2012-02-28T10:03:29Z</time>
      </trkpt>
      <trkpt lat="44.36817" lon="5.96231">
        <ele>742.7558594</ele>
        <time>2012-02-28T10:03:33Z</time>
      </trkpt>
      <trkpt lat="44.3681" lon="5.96227">
        <ele>743.717041</ele>
        <time>2012-02-28T10:03:38Z</time>
      </trkpt>
      <trkpt lat="44.36807" lon="5.96213">
        <ele>744.6782227</ele>
        <time>2012-02-28T10:03:44Z</time>
      </trkpt>
      <trkpt lat="44.36805" lon="5.96179">
        <ele>746.6010742</ele>
        <time>2012-02-28T10:03:59Z</time>
      </trkpt>
      <trkpt lat="44.36783" lon="5.96165">
        <ele>749.0043945</ele>
        <time>2012-02-28T10:04:15Z</time>
      </trkpt>
      <trkpt lat="44.36777" lon="5.96172">
        <ele>750.4465332</ele>
        <time>2012-02-28T10:04:20Z</time>
      </trkpt>
      <trkpt lat="44.36775" lon="5.96177">
        <ele>750.4465332</ele>
        <time>2012-02-28T10:04:22Z</time>
      </trkpt>
      <trkpt lat="44.36775" lon="5.96183">
        <ele>750.927002</ele>
        <time>2012-02-28T10:04:25Z</time>
      </trkpt>
      <trkpt lat="44.36755" lon="5.9622">
        <ele>753.8110352</ele>
        <time>2012-02-28T10:04:45Z</time>
      </trkpt>
      <trkpt lat="44.3673" lon="5.96234">
        <ele>756.6948242</ele>
        <time>2012-02-28T10:05:02Z</time>
      </trkpt>
      <trkpt lat="44.36701" lon="5.96243">
        <ele>759.0981445</ele>
        <time>2012-02-28T10:05:21Z</time>
      </trkpt>
      <trkpt lat="44.3667" lon="5.9626">
        <ele>761.9821777</ele>
        <time>2012-02-28T10:05:42Z</time>
      </trkpt>
      <trkpt lat="44.36641" lon="5.96279">
        <ele>764.385498</ele>
        <time>2012-02-28T10:06:01Z</time>
      </trkpt>
      <trkpt lat="44.36627" lon="5.96309">
        <ele>767.2695313</ele>
        <time>2012-02-28T10:06:18Z</time>
      </trkpt>
      <trkpt lat="44.36614" lon="5.96347">
        <ele>769.6728516</ele>
        <time>2012-02-28T10:06:37Z</time>
      </trkpt>
      <trkpt lat="44.3659" lon="5.9637">
        <ele>772.5566406</ele>
        <time>2012-02-28T10:06:54Z</time>
      </trkpt>
      <trkpt lat="44.36588" lon="5.96371">
        <ele>772.5566406</ele>
        <time>2012-02-28T10:06:55Z</time>
      </trkpt>
      <trkpt lat="44.36567" lon="5.96396">
        <ele>775.4404297</ele>
        <time>2012-02-28T10:07:13Z</time>
      </trkpt>
      <trkpt lat="44.36574" lon="5.9644">
        <ele>778.3244629</ele>
        <time>2012-02-28T10:07:34Z</time>
      </trkpt>
      <trkpt lat="44.36576" lon="5.96452">
        <ele>779.2856445</ele>
        <time>2012-02-28T10:07:40Z</time>
      </trkpt>
      <trkpt lat="44.36582" lon="5.96492">
        <ele>782.6506348</ele>
        <time>2012-02-28T10:07:58Z</time>
      </trkpt>
      <trkpt lat="44.36582" lon="5.96494">
        <ele>782.6506348</ele>
        <time>2012-02-28T10:07:59Z</time>
      </trkpt>
      <trkpt lat="44.36583" lon="5.965">
        <ele>783.1311035</ele>
        <time>2012-02-28T10:08:02Z</time>
      </trkpt>
      <trkpt lat="44.36586" lon="5.96541">
        <ele>786.0151367</ele>
        <time>2012-02-28T10:08:19Z</time>
      </trkpt>
      <trkpt lat="44.36582" lon="5.96598">
        <ele>786.0151367</ele>
        <time>2012-02-28T10:08:36Z</time>
      </trkpt>
      <trkpt lat="44.36583" lon="5.96608">
        <ele>786.0151367</ele>
        <time>2012-02-28T10:08:38Z</time>
      </trkpt>
      <trkpt lat="44.3659" lon="5.9668">
        <ele>784.0925293</ele>
        <time>2012-02-28T10:08:49Z</time>
      </trkpt>
      <trkpt lat="44.36595" lon="5.96729">
        <ele>783.6118164</ele>
        <time>2012-02-28T10:08:56Z</time>
      </trkpt>
      <trkpt lat="44.36605" lon="5.96813">
        <ele>784.5732422</ele>
        <time>2012-02-28T10:09:13Z</time>
      </trkpt>
      <trkpt lat="44.36614" lon="5.96893">
        <ele>787.4570313</ele>
        <time>2012-02-28T10:09:38Z</time>
      </trkpt>
      <trkpt lat="44.36618" lon="5.96955">
        <ele>789.3796387</ele>
        <time>2012-02-28T10:09:58Z</time>
      </trkpt>
      <trkpt lat="44.36626" lon="5.97029">
        <ele>789.8603516</ele>
        <time>2012-02-28T10:10:18Z</time>
      </trkpt>
      <trkpt lat="44.36643" lon="5.97107">
        <ele>790.8215332</ele>
        <time>2012-02-28T10:10:39Z</time>
      </trkpt>
      <trkpt lat="44.3666" lon="5.97191">
        <ele>791.782959</ele>
        <time>2012-02-28T10:11:01Z</time>
      </trkpt>
      <trkpt lat="44.36671" lon="5.9725">
        <ele>793.2248535</ele>
        <time>2012-02-28T10:11:18Z</time>
      </trkpt>
      <trkpt lat="44.36683" lon="5.97325">
        <ele>795.6281738</ele>
        <time>2012-02-28T10:11:43Z</time>
      </trkpt>
      <trkpt lat="44.3669" lon="5.97372">
        <ele>798.9929199</ele>
        <time>2012-02-28T10:12:02Z</time>
      </trkpt>
      <trkpt lat="44.36691" lon="5.97419">
        <ele>801.8769531</ele>
        <time>2012-02-28T10:12:20Z</time>
      </trkpt>
      <trkpt lat="44.36691" lon="5.97463">
        <ele>803.7995605</ele>
        <time>2012-02-28T10:12:37Z</time>
      </trkpt>
      <trkpt lat="44.36691" lon="5.9748">
        <ele>804.7607422</ele>
        <time>2012-02-28T10:12:44Z</time>
      </trkpt>
      <trkpt lat="44.36692" lon="5.97533">
        <ele>807.6447754</ele>
        <time>2012-02-28T10:13:05Z</time>
      </trkpt>
      <trkpt lat="44.36692" lon="5.97586">
        <ele>810.5285645</ele>
        <time>2012-02-28T10:13:26Z</time>
      </trkpt>
      <trkpt lat="44.36693" lon="5.97643">
        <ele>813.4128418</ele>
        <time>2012-02-28T10:13:49Z</time>
      </trkpt>
      <trkpt lat="44.36701" lon="5.97696">
        <ele>816.2966309</ele>
        <time>2012-02-28T10:14:12Z</time>
      </trkpt>
      <trkpt lat="44.36711" lon="5.97752">
        <ele>818.6999512</ele>
        <time>2012-02-28T10:14:33Z</time>
      </trkpt>
      <trkpt lat="44.36691" lon="5.9778">
        <ele>819.1806641</ele>
        <time>2012-02-28T10:14:45Z</time>
      </trkpt>
      <trkpt lat="44.36656" lon="5.97748">
        <ele>821.1032715</ele>
        <time>2012-02-28T10:15:03Z</time>
      </trkpt>
      <trkpt lat="44.36605" lon="5.97732">
        <ele>822.545166</ele>
        <time>2012-02-28T10:15:27Z</time>
      </trkpt>
      <trkpt lat="44.36595" lon="5.97748">
        <ele>823.9870605</ele>
        <time>2012-02-28T10:15:36Z</time>
      </trkpt>
      <trkpt lat="44.36621" lon="5.97785">
        <ele>826.8710938</ele>
        <time>2012-02-28T10:15:55Z</time>
      </trkpt>
      <trkpt lat="44.36622" lon="5.97786">
        <ele>826.8710938</ele>
        <time>2012-02-28T10:15:56Z</time>
      </trkpt>
      <trkpt lat="44.36627" lon="5.97793">
        <ele>827.8322754</ele>
        <time>2012-02-28T10:16:00Z</time>
      </trkpt>
      <trkpt lat="44.36653" lon="5.97827">
        <ele>829.755127</ele>
        <time>2012-02-28T10:16:19Z</time>
      </trkpt>
      <trkpt lat="44.36639" lon="5.97838">
        <ele>831.6777344</ele>
        <time>2012-02-28T10:16:26Z</time>
      </trkpt>
      <trkpt lat="44.36603" lon="5.97803">
        <ele>834.0810547</ele>
        <time>2012-02-28T10:16:48Z</time>
      </trkpt>
      <trkpt lat="44.36582" lon="5.97788">
        <ele>836.0036621</ele>
        <time>2012-02-28T10:17:04Z</time>
      </trkpt>
      <trkpt lat="44.36581" lon="5.97799">
        <ele>837.4455566</ele>
        <time>2012-02-28T10:17:08Z</time>
      </trkpt>
      <trkpt lat="44.36601" lon="5.9784">
        <ele>840.3295898</ele>
        <time>2012-02-28T10:17:28Z</time>
      </trkpt>
      <trkpt lat="44.3662" lon="5.97887">
        <ele>843.2133789</ele>
        <time>2012-02-28T10:17:50Z</time>
      </trkpt>
      <trkpt lat="44.36642" lon="5.97927">
        <ele>846.0976563</ele>
        <time>2012-02-28T10:18:08Z</time>
      </trkpt>
      <trkpt lat="44.36652" lon="5.97943">
        <ele>847.0588379</ele>
        <time>2012-02-28T10:18:16Z</time>
      </trkpt>
      <trkpt lat="44.36672" lon="5.97982">
        <ele>850.423584</ele>
        <time>2012-02-28T10:18:36Z</time>
      </trkpt>
      <trkpt lat="44.36673" lon="5.98024">
        <ele>853.307373</ele>
        <time>2012-02-28T10:18:52Z</time>
      </trkpt>
      <trkpt lat="44.36672" lon="5.98027">
        <ele>853.307373</ele>
        <time>2012-02-28T10:18:53Z</time>
      </trkpt>
      <trkpt lat="44.36672" lon="5.98078">
        <ele>856.1911621</ele>
        <time>2012-02-28T10:19:14Z</time>
      </trkpt>
      <trkpt lat="44.36672" lon="5.98125">
        <ele>858.5944824</ele>
        <time>2012-02-28T10:19:32Z</time>
      </trkpt>
      <trkpt lat="44.3667" lon="5.98181">
        <ele>861.9594727</ele>
        <time>2012-02-28T10:19:54Z</time>
      </trkpt>
      <trkpt lat="44.36656" lon="5.98237">
        <ele>862.9206543</ele>
        <time>2012-02-28T10:20:14Z</time>
      </trkpt>
      <trkpt lat="44.36614" lon="5.98235">
        <ele>865.3239746</ele>
        <time>2012-02-28T10:20:34Z</time>
      </trkpt>
      <trkpt lat="44.36576" lon="5.98243">
        <ele>867.246582</ele>
        <time>2012-02-28T10:20:54Z</time>
      </trkpt>
      <trkpt lat="44.3657" lon="5.98256">
        <ele>867.246582</ele>
        <time>2012-02-28T10:21:07Z</time>
      </trkpt>
      <trkpt lat="44.36566" lon="5.98288">
        <ele>866.7658691</ele>
        <time>2012-02-28T10:21:35Z</time>
      </trkpt>
      <trkpt lat="44.36556" lon="5.98312">
        <ele>867.246582</ele>
        <time>2012-02-28T10:21:40Z</time>
      </trkpt>
      <trkpt lat="44.36548" lon="5.98329">
        <ele>866.2851563</ele>
        <time>2012-02-28T10:21:43Z</time>
      </trkpt>
      <trkpt lat="44.36537" lon="5.98361">
        <ele>865.8046875</ele>
        <time>2012-02-28T10:21:48Z</time>
      </trkpt>
      <trkpt lat="44.36537" lon="5.98377">
        <ele>864.8432617</ele>
        <time>2012-02-28T10:21:50Z</time>
      </trkpt>
      <trkpt lat="44.36535" lon="5.98395">
        <ele>864.3625488</ele>
        <time>2012-02-28T10:21:52Z</time>
      </trkpt>
      <trkpt lat="44.36512" lon="5.98433">
        <ele>861.9594727</ele>
        <time>2012-02-28T10:21:57Z</time>
      </trkpt>
      <trkpt lat="44.36481" lon="5.98456">
        <ele>860.517334</ele>
        <time>2012-02-28T10:22:01Z</time>
      </trkpt>
      <trkpt lat="44.36474" lon="5.98461">
        <ele>858.5944824</ele>
        <time>2012-02-28T10:22:02Z</time>
      </trkpt>
      <trkpt lat="44.36446" lon="5.98448">
        <ele>859.0751953</ele>
        <time>2012-02-28T10:22:07Z</time>
      </trkpt>
      <trkpt lat="44.36409" lon="5.98417">
        <ele>860.0366211</ele>
        <time>2012-02-28T10:22:18Z</time>
      </trkpt>
      <trkpt lat="44.36348" lon="5.98371">
        <ele>857.1525879</ele>
        <time>2012-02-28T10:22:29Z</time>
      </trkpt>
      <trkpt lat="44.36335" lon="5.98359">
        <ele>855.7106934</ele>
        <time>2012-02-28T10:22:31Z</time>
      </trkpt>
      <trkpt lat="44.36329" lon="5.98353">
        <ele>854.7492676</ele>
        <time>2012-02-28T10:22:32Z</time>
      </trkpt>
      <trkpt lat="44.36289" lon="5.9835">
        <ele>851.8654785</ele>
        <time>2012-02-28T10:22:37Z</time>
      </trkpt>
      <trkpt lat="44.36212" lon="5.98381">
        <ele>849.9428711</ele>
        <time>2012-02-28T10:22:47Z</time>
      </trkpt>
      <trkpt lat="44.36184" lon="5.98399">
        <ele>847.0588379</ele>
        <time>2012-02-28T10:22:51Z</time>
      </trkpt>
      <trkpt lat="44.36138" lon="5.98457">
        <ele>843.2133789</ele>
        <time>2012-02-28T10:22:58Z</time>
      </trkpt>
      <trkpt lat="44.36115" lon="5.98507">
        <ele>842.2521973</ele>
        <time>2012-02-28T10:23:03Z</time>
      </trkpt>
      <trkpt lat="44.36076" lon="5.9852">
        <ele>845.1362305</ele>
        <time>2012-02-28T10:23:11Z</time>
      </trkpt>
      <trkpt lat="44.36051" lon="5.9854">
        <ele>848.0202637</ele>
        <time>2012-02-28T10:23:23Z</time>
      </trkpt>
      <trkpt lat="44.36028" lon="5.98591">
        <ele>850.423584</ele>
        <time>2012-02-28T10:23:40Z</time>
      </trkpt>
      <trkpt lat="44.35985" lon="5.98668">
        <ele>851.3847656</ele>
        <time>2012-02-28T10:24:01Z</time>
      </trkpt>
      <trkpt lat="44.35932" lon="5.98704">
        <ele>852.3459473</ele>
        <time>2012-02-28T10:24:18Z</time>
      </trkpt>
      <trkpt lat="44.35874" lon="5.98726">
        <ele>853.307373</ele>
        <time>2012-02-28T10:24:34Z</time>
      </trkpt>
      <trkpt lat="44.35816" lon="5.98754">
        <ele>855.2299805</ele>
        <time>2012-02-28T10:24:54Z</time>
      </trkpt>
      <trkpt lat="44.35811" lon="5.98764">
        <ele>854.7492676</ele>
        <time>2012-02-28T10:24:56Z</time>
      </trkpt>
      <trkpt lat="44.35798" lon="5.98776">
        <ele>854.2687988</ele>
        <time>2012-02-28T10:24:59Z</time>
      </trkpt>
      <trkpt lat="44.35766" lon="5.98794">
        <ele>851.3847656</ele>
        <time>2012-02-28T10:25:04Z</time>
      </trkpt>
      <trkpt lat="44.35752" lon="5.98805">
        <ele>850.9040527</ele>
        <time>2012-02-28T10:25:06Z</time>
      </trkpt>
      <trkpt lat="44.35727" lon="5.98834">
        <ele>848.0202637</ele>
        <time>2012-02-28T10:25:10Z</time>
      </trkpt>
      <trkpt lat="44.35708" lon="5.98863">
        <ele>845.6169434</ele>
        <time>2012-02-28T10:25:13Z</time>
      </trkpt>
      <trkpt lat="44.35692" lon="5.98881">
        <ele>844.1750488</ele>
        <time>2012-02-28T10:25:15Z</time>
      </trkpt>
      <trkpt lat="44.35676" lon="5.989">
        <ele>842.7329102</ele>
        <time>2012-02-28T10:25:17Z</time>
      </trkpt>
      <trkpt lat="44.3565" lon="5.98928">
        <ele>840.8100586</ele>
        <time>2012-02-28T10:25:20Z</time>
      </trkpt>
      <trkpt lat="44.35595" lon="5.98985">
        <ele>838.4069824</ele>
        <time>2012-02-28T10:25:27Z</time>
      </trkpt>
      <trkpt lat="44.35563" lon="5.99009">
        <ele>836.9648438</ele>
        <time>2012-02-28T10:25:31Z</time>
      </trkpt>
      <trkpt lat="44.35537" lon="5.99024">
        <ele>835.0424805</ele>
        <time>2012-02-28T10:25:34Z</time>
      </trkpt>
      <trkpt lat="44.35471" lon="5.99062">
        <ele>833.6003418</ele>
        <time>2012-02-28T10:25:43Z</time>
      </trkpt>
      <trkpt lat="44.35415" lon="5.99104">
        <ele>831.1972656</ele>
        <time>2012-02-28T10:25:51Z</time>
      </trkpt>
      <trkpt lat="44.35341" lon="5.99125">
        <ele>833.1196289</ele>
        <time>2012-02-28T10:26:04Z</time>
      </trkpt>
      <trkpt lat="44.35299" lon="5.99128">
        <ele>835.5229492</ele>
        <time>2012-02-28T10:26:18Z</time>
      </trkpt>
      <trkpt lat="44.35266" lon="5.99127">
        <ele>838.4069824</ele>
        <time>2012-02-28T10:26:32Z</time>
      </trkpt>
      <trkpt lat="44.35221" lon="5.99135">
        <ele>840.8100586</ele>
        <time>2012-02-28T10:26:52Z</time>
      </trkpt>
      <trkpt lat="44.352" lon="5.99165">
        <ele>841.7714844</ele>
        <time>2012-02-28T10:27:06Z</time>
      </trkpt>
      <trkpt lat="44.352" lon="5.99167">
        <ele>841.7714844</ele>
        <time>2012-02-28T10:27:25Z</time>
      </trkpt>
      <trkpt lat="44.352" lon="5.99167">
        <ele>842.2521973</ele>
        <time>2012-02-28T10:27:53Z</time>
      </trkpt>
      <trkpt lat="44.352" lon="5.99167">
        <ele>842.2521973</ele>
        <time>2012-02-28T10:28:21Z</time>
      </trkpt>
      <trkpt lat="44.35197" lon="5.99177">
        <ele>841.2907715</ele>
        <time>2012-02-28T10:28:26Z</time>
      </trkpt>
      <trkpt lat="44.35194" lon="5.99182">
        <ele>841.7714844</ele>
        <time>2012-02-28T10:28:28Z</time>
      </trkpt>
      <trkpt lat="44.3518" lon="5.992">
        <ele>841.2907715</ele>
        <time>2012-02-28T10:28:37Z</time>
      </trkpt>
      <trkpt lat="44.3517" lon="5.99216">
        <ele>841.2907715</ele>
        <time>2012-02-28T10:28:41Z</time>
      </trkpt>
      <trkpt lat="44.3515" lon="5.9925">
        <ele>840.3295898</ele>
        <time>2012-02-28T10:28:48Z</time>
      </trkpt>
      <trkpt lat="44.35137" lon="5.99282">
        <ele>839.848877</ele>
        <time>2012-02-28T10:28:55Z</time>
      </trkpt>
      <trkpt lat="44.35133" lon="5.99298">
        <ele>839.3681641</ele>
        <time>2012-02-28T10:28:58Z</time>
      </trkpt>
      <trkpt lat="44.3513" lon="5.99317">
        <ele>838.8876953</ele>
        <time>2012-02-28T10:29:01Z</time>
      </trkpt>
      <trkpt lat="44.35113" lon="5.99435">
        <ele>836.484375</ele>
        <time>2012-02-28T10:29:16Z</time>
      </trkpt>
      <trkpt lat="44.35082" lon="5.99491">
        <ele>835.0424805</ele>
        <time>2012-02-28T10:29:24Z</time>
      </trkpt>
      <trkpt lat="44.35048" lon="5.99511">
        <ele>835.5229492</ele>
        <time>2012-02-28T10:29:35Z</time>
      </trkpt>
      <trkpt lat="44.35048" lon="5.99511">
        <ele>835.5229492</ele>
        <time>2012-02-28T10:31:13Z</time>
      </trkpt>
      <trkpt lat="44.35044" lon="5.99513">
        <ele>835.5229492</ele>
        <time>2012-02-28T10:31:57Z</time>
      </trkpt>
      <trkpt lat="44.35039" lon="5.99516">
        <ele>835.5229492</ele>
        <time>2012-02-28T10:32:00Z</time>
      </trkpt>
      <trkpt lat="44.34999" lon="5.99543">
        <ele>837.4455566</ele>
        <time>2012-02-28T10:32:16Z</time>
      </trkpt>
      <trkpt lat="44.3496" lon="5.99574">
        <ele>839.848877</ele>
        <time>2012-02-28T10:32:33Z</time>
      </trkpt>
      <trkpt lat="44.34933" lon="5.99618">
        <ele>840.3295898</ele>
        <time>2012-02-28T10:32:48Z</time>
      </trkpt>
      <trkpt lat="44.34887" lon="5.99687">
        <ele>836.9648438</ele>
        <time>2012-02-28T10:33:00Z</time>
      </trkpt>
      <trkpt lat="44.34882" lon="5.99695">
        <ele>836.9648438</ele>
        <time>2012-02-28T10:33:01Z</time>
      </trkpt>
      <trkpt lat="44.3487" lon="5.99711">
        <ele>836.484375</ele>
        <time>2012-02-28T10:33:03Z</time>
      </trkpt>
      <trkpt lat="44.34856" lon="5.99727">
        <ele>835.0424805</ele>
        <time>2012-02-28T10:33:05Z</time>
      </trkpt>
      <trkpt lat="44.3484" lon="5.99735">
        <ele>834.5617676</ele>
        <time>2012-02-28T10:33:07Z</time>
      </trkpt>
      <trkpt lat="44.34824" lon="5.99741">
        <ele>833.6003418</ele>
        <time>2012-02-28T10:33:09Z</time>
      </trkpt>
      <trkpt lat="44.34796" lon="5.99764">
        <ele>832.1584473</ele>
        <time>2012-02-28T10:33:13Z</time>
      </trkpt>
      <trkpt lat="44.3477" lon="5.99804">
        <ele>829.755127</ele>
        <time>2012-02-28T10:33:17Z</time>
      </trkpt>
      <trkpt lat="44.34713" lon="5.99888">
        <ele>826.3903809</ele>
        <time>2012-02-28T10:33:25Z</time>
      </trkpt>
      <trkpt lat="44.34679" lon="5.99936">
        <ele>825.4289551</ele>
        <time>2012-02-28T10:33:30Z</time>
      </trkpt>
      <trkpt lat="44.34602" lon="6.00041">
        <ele>822.0644531</ele>
        <time>2012-02-28T10:33:41Z</time>
      </trkpt>
      <trkpt lat="44.34505" lon="6.00135">
        <ele>820.1418457</ele>
        <time>2012-02-28T10:33:54Z</time>
      </trkpt>
      <trkpt lat="44.34428" lon="6.00207">
        <ele>818.2192383</ele>
        <time>2012-02-28T10:34:06Z</time>
      </trkpt>
      <trkpt lat="44.34414" lon="6.00221">
        <ele>817.7385254</ele>
        <time>2012-02-28T10:34:08Z</time>
      </trkpt>
      <trkpt lat="44.34356" lon="6.00259">
        <ele>815.3354492</ele>
        <time>2012-02-28T10:34:15Z</time>
      </trkpt>
      <trkpt lat="44.3434" lon="6.00269">
        <ele>815.3354492</ele>
        <time>2012-02-28T10:34:17Z</time>
      </trkpt>
      <trkpt lat="44.3429" lon="6.00262">
        <ele>816.7773438</ele>
        <time>2012-02-28T10:34:25Z</time>
      </trkpt>
      <trkpt lat="44.3426" lon="6.0024">
        <ele>818.2192383</ele>
        <time>2012-02-28T10:34:35Z</time>
      </trkpt>
      <trkpt lat="44.3423" lon="6.00262">
        <ele>816.7773438</ele>
        <time>2012-02-28T10:34:42Z</time>
      </trkpt>
      <trkpt lat="44.34222" lon="6.00277">
        <ele>815.8161621</ele>
        <time>2012-02-28T10:34:44Z</time>
      </trkpt>
      <trkpt lat="44.34197" lon="6.00328">
        <ele>813.8933105</ele>
        <time>2012-02-28T10:34:50Z</time>
      </trkpt>
      <trkpt lat="44.3411" lon="6.00393">
        <ele>811.9707031</ele>
        <time>2012-02-28T10:35:03Z</time>
      </trkpt>
      <trkpt lat="44.34103" lon="6.00397">
        <ele>811.9707031</ele>
        <time>2012-02-28T10:35:04Z</time>
      </trkpt>
      <trkpt lat="44.34091" lon="6.00409">
        <ele>811.4899902</ele>
        <time>2012-02-28T10:35:06Z</time>
      </trkpt>
      <trkpt lat="44.34034" lon="6.00525">
        <ele>808.1254883</ele>
        <time>2012-02-28T10:35:19Z</time>
      </trkpt>
      <trkpt lat="44.34027" lon="6.00547">
        <ele>807.1640625</ele>
        <time>2012-02-28T10:35:21Z</time>
      </trkpt>
      <trkpt lat="44.33984" lon="6.00607">
        <ele>805.2414551</ele>
        <time>2012-02-28T10:35:28Z</time>
      </trkpt>
      <trkpt lat="44.33925" lon="6.00635">
        <ele>802.8381348</ele>
        <time>2012-02-28T10:35:35Z</time>
      </trkpt>
      <trkpt lat="44.33841" lon="6.00715">
        <ele>799.9543457</ele>
        <time>2012-02-28T10:35:46Z</time>
      </trkpt>
      <trkpt lat="44.3375" lon="6.00796">
        <ele>799.9543457</ele>
        <time>2012-02-28T10:35:58Z</time>
      </trkpt>
      <trkpt lat="44.33669" lon="6.0084">
        <ele>799.9543457</ele>
        <time>2012-02-28T10:36:12Z</time>
      </trkpt>
      <trkpt lat="44.33664" lon="6.00841">
        <ele>799.9543457</ele>
        <time>2012-02-28T10:36:13Z</time>
      </trkpt>
      <trkpt lat="44.3361" lon="6.00886">
        <ele>801.8769531</ele>
        <time>2012-02-28T10:36:26Z</time>
      </trkpt>
      <trkpt lat="44.33597" lon="6.00891">
        <ele>801.8769531</ele>
        <time>2012-02-28T10:36:29Z</time>
      </trkpt>
      <trkpt lat="44.33536" lon="6.00904">
        <ele>803.7995605</ele>
        <time>2012-02-28T10:36:46Z</time>
      </trkpt>
      <trkpt lat="44.33485" lon="6.00946">
        <ele>804.7607422</ele>
        <time>2012-02-28T10:37:03Z</time>
      </trkpt>
      <trkpt lat="44.33425" lon="6.00981">
        <ele>806.6833496</ele>
        <time>2012-02-28T10:37:22Z</time>
      </trkpt>
      <trkpt lat="44.33387" lon="6.0103">
        <ele>808.1254883</ele>
        <time>2012-02-28T10:37:38Z</time>
      </trkpt>
      <trkpt lat="44.3336" lon="6.01096">
        <ele>811.0092773</ele>
        <time>2012-02-28T10:37:58Z</time>
      </trkpt>
      <trkpt lat="44.33351" lon="6.01187">
        <ele>812.9321289</ele>
        <time>2012-02-28T10:38:20Z</time>
      </trkpt>
      <trkpt lat="44.33347" lon="6.01277">
        <ele>811.4899902</ele>
        <time>2012-02-28T10:38:35Z</time>
      </trkpt>
      <trkpt lat="44.33338" lon="6.01439">
        <ele>810.0478516</ele>
        <time>2012-02-28T10:38:57Z</time>
      </trkpt>
      <trkpt lat="44.3333" lon="6.01608">
        <ele>807.6447754</ele>
        <time>2012-02-28T10:39:16Z</time>
      </trkpt>
      <trkpt lat="44.3333" lon="6.0169">
        <ele>805.2414551</ele>
        <time>2012-02-28T10:39:25Z</time>
      </trkpt>
      <trkpt lat="44.33331" lon="6.0172">
        <ele>803.7995605</ele>
        <time>2012-02-28T10:39:28Z</time>
      </trkpt>
      <trkpt lat="44.33337" lon="6.01761">
        <ele>801.8769531</ele>
        <time>2012-02-28T10:39:32Z</time>
      </trkpt>
      <trkpt lat="44.33347" lon="6.01775">
        <ele>800.4350586</ele>
        <time>2012-02-28T10:39:34Z</time>
      </trkpt>
      <trkpt lat="44.3336" lon="6.01788">
        <ele>799.4736328</ele>
        <time>2012-02-28T10:39:36Z</time>
      </trkpt>
      <trkpt lat="44.33383" lon="6.01795">
        <ele>796.5898438</ele>
        <time>2012-02-28T10:39:39Z</time>
      </trkpt>
      <trkpt lat="44.33406" lon="6.01799">
        <ele>794.1862793</ele>
        <time>2012-02-28T10:39:42Z</time>
      </trkpt>
      <trkpt lat="44.33417" lon="6.018">
        <ele>793.7055664</ele>
        <time>2012-02-28T10:39:44Z</time>
      </trkpt>
      <trkpt lat="44.33425" lon="6.01796">
        <ele>792.7443848</ele>
        <time>2012-02-28T10:39:46Z</time>
      </trkpt>
      <trkpt lat="44.33434" lon="6.01785">
        <ele>791.782959</ele>
        <time>2012-02-28T10:39:49Z</time>
      </trkpt>
      <trkpt lat="44.33446" lon="6.01754">
        <ele>790.8215332</ele>
        <time>2012-02-28T10:39:53Z</time>
      </trkpt>
      <trkpt lat="44.33474" lon="6.01721">
        <ele>786.9763184</ele>
        <time>2012-02-28T10:39:58Z</time>
      </trkpt>
      <trkpt lat="44.33483" lon="6.01713">
        <ele>785.5344238</ele>
        <time>2012-02-28T10:40:00Z</time>
      </trkpt>
      <trkpt lat="44.33501" lon="6.01734">
        <ele>781.689209</ele>
        <time>2012-02-28T10:40:06Z</time>
      </trkpt>
      <trkpt lat="44.33498" lon="6.01741">
        <ele>781.689209</ele>
        <time>2012-02-28T10:40:07Z</time>
      </trkpt>
      <trkpt lat="44.33493" lon="6.01747">
        <ele>780.7280273</ele>
        <time>2012-02-28T10:40:08Z</time>
      </trkpt>
      <trkpt lat="44.33484" lon="6.0176">
        <ele>779.2856445</ele>
        <time>2012-02-28T10:40:10Z</time>
      </trkpt>
      <trkpt lat="44.33478" lon="6.01805">
        <ele>775.9211426</ele>
        <time>2012-02-28T10:40:15Z</time>
      </trkpt>
      <trkpt lat="44.33481" lon="6.01816">
        <ele>775.9211426</ele>
        <time>2012-02-28T10:40:16Z</time>
      </trkpt>
      <trkpt lat="44.33488" lon="6.01838">
        <ele>774.479248</ele>
        <time>2012-02-28T10:40:18Z</time>
      </trkpt>
      <trkpt lat="44.33488" lon="6.01864">
        <ele>773.0373535</ele>
        <time>2012-02-28T10:40:20Z</time>
      </trkpt>
      <trkpt lat="44.33488" lon="6.01889">
        <ele>769.6728516</ele>
        <time>2012-02-28T10:40:22Z</time>
      </trkpt>
      <trkpt lat="44.33488" lon="6.01902">
        <ele>769.6728516</ele>
        <time>2012-02-28T10:40:23Z</time>
      </trkpt>
      <trkpt lat="44.33493" lon="6.01927">
        <ele>767.75</ele>
        <time>2012-02-28T10:40:25Z</time>
      </trkpt>
      <trkpt lat="44.33499" lon="6.01949">
        <ele>766.3081055</ele>
        <time>2012-02-28T10:40:27Z</time>
      </trkpt>
      <trkpt lat="44.33503" lon="6.01959">
        <ele>764.8662109</ele>
        <time>2012-02-28T10:40:28Z</time>
      </trkpt>
      <trkpt lat="44.33507" lon="6.01978">
        <ele>763.4240723</ele>
        <time>2012-02-28T10:40:30Z</time>
      </trkpt>
      <trkpt lat="44.33508" lon="6.01998">
        <ele>761.9821777</ele>
        <time>2012-02-28T10:40:32Z</time>
      </trkpt>
      <trkpt lat="44.33514" lon="6.02013">
        <ele>760.5400391</ele>
        <time>2012-02-28T10:40:34Z</time>
      </trkpt>
      <trkpt lat="44.33534" lon="6.02029">
        <ele>758.6174316</ele>
        <time>2012-02-28T10:40:37Z</time>
      </trkpt>
      <trkpt lat="44.33541" lon="6.02034">
        <ele>757.65625</ele>
        <time>2012-02-28T10:40:38Z</time>
      </trkpt>
      <trkpt lat="44.3357" lon="6.02066">
        <ele>754.291748</ele>
        <time>2012-02-28T10:40:43Z</time>
      </trkpt>
      <trkpt lat="44.33585" lon="6.02097">
        <ele>752.8496094</ele>
        <time>2012-02-28T10:40:46Z</time>
      </trkpt>
      <trkpt lat="44.3359" lon="6.02107">
        <ele>751.4077148</ele>
        <time>2012-02-28T10:40:47Z</time>
      </trkpt>
      <trkpt lat="44.33597" lon="6.02136">
        <ele>747.5622559</ele>
        <time>2012-02-28T10:40:50Z</time>
      </trkpt>
      <trkpt lat="44.33599" lon="6.02146">
        <ele>747.5622559</ele>
        <time>2012-02-28T10:40:51Z</time>
      </trkpt>
      <trkpt lat="44.33606" lon="6.02164">
        <ele>745.6396484</ele>
        <time>2012-02-28T10:40:53Z</time>
      </trkpt>
      <trkpt lat="44.33618" lon="6.02179">
        <ele>744.1977539</ele>
        <time>2012-02-28T10:40:55Z</time>
      </trkpt>
      <trkpt lat="44.33629" lon="6.02191">
        <ele>742.7558594</ele>
        <time>2012-02-28T10:40:57Z</time>
      </trkpt>
      <trkpt lat="44.33648" lon="6.02191">
        <ele>740.3525391</ele>
        <time>2012-02-28T10:41:00Z</time>
      </trkpt>
      <trkpt lat="44.33654" lon="6.02184">
        <ele>739.8718262</ele>
        <time>2012-02-28T10:41:01Z</time>
      </trkpt>
      <trkpt lat="44.3367" lon="6.02174">
        <ele>738.9106445</ele>
        <time>2012-02-28T10:41:03Z</time>
      </trkpt>
      <trkpt lat="44.33693" lon="6.02174">
        <ele>735.5458984</ele>
        <time>2012-02-28T10:41:06Z</time>
      </trkpt>
      <trkpt lat="44.33698" lon="6.02175">
        <ele>735.5458984</ele>
        <time>2012-02-28T10:41:07Z</time>
      </trkpt>
      <trkpt lat="44.3371" lon="6.02199">
        <ele>733.1425781</ele>
        <time>2012-02-28T10:41:11Z</time>
      </trkpt>
      <trkpt lat="44.33709" lon="6.02207">
        <ele>732.1813965</ele>
        <time>2012-02-28T10:41:12Z</time>
      </trkpt>
      <trkpt lat="44.33727" lon="6.02226">
        <ele>729.2971191</ele>
        <time>2012-02-28T10:41:18Z</time>
      </trkpt>
      <trkpt lat="44.3373" lon="6.02218">
        <ele>728.8166504</ele>
        <time>2012-02-28T10:41:19Z</time>
      </trkpt>
      <trkpt lat="44.33737" lon="6.02205">
        <ele>727.8552246</ele>
        <time>2012-02-28T10:41:21Z</time>
      </trkpt>
      <trkpt lat="44.33766" lon="6.02224">
        <ele>724.4907227</ele>
        <time>2012-02-28T10:41:27Z</time>
      </trkpt>
      <trkpt lat="44.33778" lon="6.02255">
        <ele>723.0488281</ele>
        <time>2012-02-28T10:41:30Z</time>
      </trkpt>
      <trkpt lat="44.33786" lon="6.02276">
        <ele>721.6066895</ele>
        <time>2012-02-28T10:41:32Z</time>
      </trkpt>
      <trkpt lat="44.33792" lon="6.02295">
        <ele>718.7229004</ele>
        <time>2012-02-28T10:41:35Z</time>
      </trkpt>
      <trkpt lat="44.33784" lon="6.02317">
        <ele>718.2421875</ele>
        <time>2012-02-28T10:41:37Z</time>
      </trkpt>
      <trkpt lat="44.33775" lon="6.02335">
        <ele>717.7614746</ele>
        <time>2012-02-28T10:41:39Z</time>
      </trkpt>
      <trkpt lat="44.33769" lon="6.02376">
        <ele>715.8388672</ele>
        <time>2012-02-28T10:41:43Z</time>
      </trkpt>
      <trkpt lat="44.33751" lon="6.02393">
        <ele>714.3967285</ele>
        <time>2012-02-28T10:41:46Z</time>
      </trkpt>
      <trkpt lat="44.33744" lon="6.02397">
        <ele>714.3967285</ele>
        <time>2012-02-28T10:41:47Z</time>
      </trkpt>
      <trkpt lat="44.33728" lon="6.02436">
        <ele>712.954834</ele>
        <time>2012-02-28T10:41:52Z</time>
      </trkpt>
      <trkpt lat="44.33728" lon="6.02458">
        <ele>711.9936523</ele>
        <time>2012-02-28T10:41:54Z</time>
      </trkpt>
      <trkpt lat="44.33723" lon="6.02489">
        <ele>711.5129395</ele>
        <time>2012-02-28T10:41:57Z</time>
      </trkpt>
      <trkpt lat="44.33738" lon="6.02561">
        <ele>710.0708008</ele>
        <time>2012-02-28T10:42:05Z</time>
      </trkpt>
      <trkpt lat="44.33766" lon="6.02595">
        <ele>709.590332</ele>
        <time>2012-02-28T10:42:11Z</time>
      </trkpt>
      <trkpt lat="44.33778" lon="6.02618">
        <ele>709.1096191</ele>
        <time>2012-02-28T10:42:14Z</time>
      </trkpt>
      <trkpt lat="44.33814" lon="6.02646">
        <ele>707.6677246</ele>
        <time>2012-02-28T10:42:20Z</time>
      </trkpt>
      <trkpt lat="44.33845" lon="6.02651">
        <ele>708.1484375</ele>
        <time>2012-02-28T10:42:25Z</time>
      </trkpt>
      <trkpt lat="44.33904" lon="6.02673">
        <ele>710.0708008</ele>
        <time>2012-02-28T10:42:39Z</time>
      </trkpt>
      <trkpt lat="44.33975" lon="6.02663">
        <ele>708.6289063</ele>
        <time>2012-02-28T10:42:52Z</time>
      </trkpt>
      <trkpt lat="44.34051" lon="6.02693">
        <ele>706.7062988</ele>
        <time>2012-02-28T10:43:04Z</time>
      </trkpt>
      <trkpt lat="44.34071" lon="6.02705">
        <ele>705.7451172</ele>
        <time>2012-02-28T10:43:07Z</time>
      </trkpt>
      <trkpt lat="44.34102" lon="6.02725">
        <ele>704.7836914</ele>
        <time>2012-02-28T10:43:12Z</time>
      </trkpt>
      <trkpt lat="44.34114" lon="6.02754">
        <ele>702.861084</ele>
        <time>2012-02-28T10:43:20Z</time>
      </trkpt>
      <trkpt lat="44.34103" lon="6.02757">
        <ele>702.3803711</ele>
        <time>2012-02-28T10:43:23Z</time>
      </trkpt>
      <trkpt lat="44.34093" lon="6.02759">
        <ele>701.4191895</ele>
        <time>2012-02-28T10:43:25Z</time>
      </trkpt>
      <trkpt lat="44.34018" lon="6.02796">
        <ele>700.4580078</ele>
        <time>2012-02-28T10:43:38Z</time>
      </trkpt>
      <trkpt lat="44.33926" lon="6.02809">
        <ele>699.4963379</ele>
        <time>2012-02-28T10:43:54Z</time>
      </trkpt>
      <trkpt lat="44.33864" lon="6.02814">
        <ele>700.4580078</ele>
        <time>2012-02-28T10:44:07Z</time>
      </trkpt>
      <trkpt lat="44.3375" lon="6.02813">
        <ele>698.0544434</ele>
        <time>2012-02-28T10:44:26Z</time>
      </trkpt>
      <trkpt lat="44.33676" lon="6.02801">
        <ele>694.6896973</ele>
        <time>2012-02-28T10:44:36Z</time>
      </trkpt>
      <trkpt lat="44.33537" lon="6.02787">
        <ele>691.8059082</ele>
        <time>2012-02-28T10:44:55Z</time>
      </trkpt>
      <trkpt lat="44.33413" lon="6.02792">
        <ele>691.3251953</ele>
        <time>2012-02-28T10:45:15Z</time>
      </trkpt>
      <trkpt lat="44.33306" lon="6.02814">
        <ele>690.3640137</ele>
        <time>2012-02-28T10:45:33Z</time>
      </trkpt>
      <trkpt lat="44.33216" lon="6.02862">
        <ele>686.9992676</ele>
        <time>2012-02-28T10:45:46Z</time>
      </trkpt>
      <trkpt lat="44.33108" lon="6.02908">
        <ele>684.1154785</ele>
        <time>2012-02-28T10:46:00Z</time>
      </trkpt>
      <trkpt lat="44.3297" lon="6.02931">
        <ele>681.2314453</ele>
        <time>2012-02-28T10:46:19Z</time>
      </trkpt>
      <trkpt lat="44.32805" lon="6.02929">
        <ele>678.3474121</ele>
        <time>2012-02-28T10:46:43Z</time>
      </trkpt>
      <trkpt lat="44.32708" lon="6.02922">
        <ele>674.9829102</ele>
        <time>2012-02-28T10:46:55Z</time>
      </trkpt>
      <trkpt lat="44.32573" lon="6.02936">
        <ele>672.098877</ele>
        <time>2012-02-28T10:47:12Z</time>
      </trkpt>
      <trkpt lat="44.32428" lon="6.02984">
        <ele>668.734375</ele>
        <time>2012-02-28T10:47:32Z</time>
      </trkpt>
      <trkpt lat="44.32343" lon="6.03012">
        <ele>665.3696289</ele>
        <time>2012-02-28T10:47:42Z</time>
      </trkpt>
      <trkpt lat="44.32273" lon="6.03023">
        <ele>662.9663086</ele>
        <time>2012-02-28T10:47:50Z</time>
      </trkpt>
      <trkpt lat="44.32203" lon="6.03019">
        <ele>660.0822754</ele>
        <time>2012-02-28T10:47:58Z</time>
      </trkpt>
      <trkpt lat="44.32095" lon="6.0301">
        <ele>660.0822754</ele>
        <time>2012-02-28T10:48:12Z</time>
      </trkpt>
      <trkpt lat="44.31988" lon="6.03009">
        <ele>657.1984863</ele>
        <time>2012-02-28T10:48:28Z</time>
      </trkpt>
      <trkpt lat="44.31975" lon="6.03011">
        <ele>657.1984863</ele>
        <time>2012-02-28T10:48:30Z</time>
      </trkpt>
      <trkpt lat="44.31876" lon="6.03077">
        <ele>654.795166</ele>
        <time>2012-02-28T10:48:46Z</time>
      </trkpt>
      <trkpt lat="44.31785" lon="6.03184">
        <ele>652.8725586</ele>
        <time>2012-02-28T10:49:05Z</time>
      </trkpt>
      <trkpt lat="44.31687" lon="6.03299">
        <ele>650.949707</ele>
        <time>2012-02-28T10:49:26Z</time>
      </trkpt>
      <trkpt lat="44.31591" lon="6.03411">
        <ele>649.5078125</ele>
        <time>2012-02-28T10:49:47Z</time>
      </trkpt>
      <trkpt lat="44.31483" lon="6.035">
        <ele>647.5852051</ele>
        <time>2012-02-28T10:50:08Z</time>
      </trkpt>
      <trkpt lat="44.3136" lon="6.03534">
        <ele>644.7011719</ele>
        <time>2012-02-28T10:50:27Z</time>
      </trkpt>
      <trkpt lat="44.31245" lon="6.0354">
        <ele>641.3366699</ele>
        <time>2012-02-28T10:50:44Z</time>
      </trkpt>
      <trkpt lat="44.31106" lon="6.03536">
        <ele>639.8947754</ele>
        <time>2012-02-28T10:51:07Z</time>
      </trkpt>
      <trkpt lat="44.30974" lon="6.03522">
        <ele>637.4914551</ele>
        <time>2012-02-28T10:51:29Z</time>
      </trkpt>
      <trkpt lat="44.30859" lon="6.03527">
        <ele>635.5686035</ele>
        <time>2012-02-28T10:51:48Z</time>
      </trkpt>
      <trkpt lat="44.3073" lon="6.03521">
        <ele>633.6459961</ele>
        <time>2012-02-28T10:52:09Z</time>
      </trkpt>
      <trkpt lat="44.30713" lon="6.03518">
        <ele>633.1652832</ele>
        <time>2012-02-28T10:52:12Z</time>
      </trkpt>
      <trkpt lat="44.3063" lon="6.03481">
        <ele>631.2429199</ele>
        <time>2012-02-28T10:52:28Z</time>
      </trkpt>
      <trkpt lat="44.30545" lon="6.03416">
        <ele>629.8007813</ele>
        <time>2012-02-28T10:52:45Z</time>
      </trkpt>
      <trkpt lat="44.30443" lon="6.03388">
        <ele>628.3588867</ele>
        <time>2012-02-28T10:53:03Z</time>
      </trkpt>
      <trkpt lat="44.30343" lon="6.03365">
        <ele>627.3977051</ele>
        <time>2012-02-28T10:53:20Z</time>
      </trkpt>
      <trkpt lat="44.30233" lon="6.03341">
        <ele>626.9169922</ele>
        <time>2012-02-28T10:53:40Z</time>
      </trkpt>
      <trkpt lat="44.30143" lon="6.03321">
        <ele>625.4748535</ele>
        <time>2012-02-28T10:53:56Z</time>
      </trkpt>
      <trkpt lat="44.30054" lon="6.03301">
        <ele>624.9943848</ele>
        <time>2012-02-28T10:54:12Z</time>
      </trkpt>
      <trkpt lat="44.29966" lon="6.03281">
        <ele>624.032959</ele>
        <time>2012-02-28T10:54:29Z</time>
      </trkpt>
      <trkpt lat="44.2986" lon="6.03256">
        <ele>624.032959</ele>
        <time>2012-02-28T10:54:48Z</time>
      </trkpt>
      <trkpt lat="44.29772" lon="6.03205">
        <ele>624.032959</ele>
        <time>2012-02-28T10:55:07Z</time>
      </trkpt>
      <trkpt lat="44.29695" lon="6.03116">
        <ele>622.1103516</ele>
        <time>2012-02-28T10:55:25Z</time>
      </trkpt>
      <trkpt lat="44.29647" lon="6.03022">
        <ele>619.7070313</ele>
        <time>2012-02-28T10:55:38Z</time>
      </trkpt>
      <trkpt lat="44.2961" lon="6.02923">
        <ele>618.2648926</ele>
        <time>2012-02-28T10:55:50Z</time>
      </trkpt>
      <trkpt lat="44.29537" lon="6.0283">
        <ele>616.822998</ele>
        <time>2012-02-28T10:56:05Z</time>
      </trkpt>
      <trkpt lat="44.29519" lon="6.02818">
        <ele>616.822998</ele>
        <time>2012-02-28T10:56:08Z</time>
      </trkpt>
      <trkpt lat="44.29391" lon="6.02757">
        <ele>614.4196777</ele>
        <time>2012-02-28T10:56:29Z</time>
      </trkpt>
      <trkpt lat="44.2928" lon="6.02707">
        <ele>612.4970703</ele>
        <time>2012-02-28T10:56:47Z</time>
      </trkpt>
      <trkpt lat="44.2919" lon="6.02695">
        <ele>611.5358887</ele>
        <time>2012-02-28T10:57:02Z</time>
      </trkpt>
      <trkpt lat="44.29136" lon="6.0266">
        <ele>611.5358887</ele>
        <time>2012-02-28T10:57:15Z</time>
      </trkpt>
      <trkpt lat="44.29092" lon="6.02626">
        <ele>614.4196777</ele>
        <time>2012-02-28T10:57:32Z</time>
      </trkpt>
      <trkpt lat="44.29048" lon="6.02591">
        <ele>616.3422852</ele>
        <time>2012-02-28T10:57:49Z</time>
      </trkpt>
      <trkpt lat="44.28998" lon="6.02546">
        <ele>619.7070313</ele>
        <time>2012-02-28T10:58:10Z</time>
      </trkpt>
      <trkpt lat="44.28951" lon="6.02512">
        <ele>621.6296387</ele>
        <time>2012-02-28T10:58:29Z</time>
      </trkpt>
      <trkpt lat="44.28912" lon="6.02496">
        <ele>623.0717773</ele>
        <time>2012-02-28T10:58:44Z</time>
      </trkpt>
      <trkpt lat="44.28853" lon="6.02479">
        <ele>623.5524902</ele>
        <time>2012-02-28T10:59:02Z</time>
      </trkpt>
      <trkpt lat="44.28812" lon="6.02454">
        <ele>623.0717773</ele>
        <time>2012-02-28T10:59:13Z</time>
      </trkpt>
      <trkpt lat="44.28758" lon="6.02374">
        <ele>622.5910645</ele>
        <time>2012-02-28T10:59:31Z</time>
      </trkpt>
      <trkpt lat="44.28691" lon="6.02299">
        <ele>621.6296387</ele>
        <time>2012-02-28T10:59:49Z</time>
      </trkpt>
      <trkpt lat="44.28592" lon="6.02184">
        <ele>618.7456055</ele>
        <time>2012-02-28T11:00:12Z</time>
      </trkpt>
      <trkpt lat="44.28487" lon="6.02065">
        <ele>616.822998</ele>
        <time>2012-02-28T11:00:35Z</time>
      </trkpt>
      <trkpt lat="44.28397" lon="6.0196">
        <ele>614.4196777</ele>
        <time>2012-02-28T11:00:56Z</time>
      </trkpt>
      <trkpt lat="44.28333" lon="6.01885">
        <ele>611.5358887</ele>
        <time>2012-02-28T11:01:09Z</time>
      </trkpt>
      <trkpt lat="44.28321" lon="6.0187">
        <ele>610.5744629</ele>
        <time>2012-02-28T11:01:11Z</time>
      </trkpt>
      <trkpt lat="44.28283" lon="6.01818">
        <ele>607.2099609</ele>
        <time>2012-02-28T11:01:17Z</time>
      </trkpt>
      <trkpt lat="44.28277" lon="6.01809">
        <ele>607.2099609</ele>
        <time>2012-02-28T11:01:18Z</time>
      </trkpt>
      <trkpt lat="44.28244" lon="6.01757">
        <ele>603.8452148</ele>
        <time>2012-02-28T11:01:24Z</time>
      </trkpt>
      <trkpt lat="44.28239" lon="6.01749">
        <ele>603.8452148</ele>
        <time>2012-02-28T11:01:25Z</time>
      </trkpt>
      <trkpt lat="44.28205" lon="6.01694">
        <ele>600.9611816</ele>
        <time>2012-02-28T11:01:32Z</time>
      </trkpt>
      <trkpt lat="44.28207" lon="6.0163">
        <ele>599.0385742</ele>
        <time>2012-02-28T11:01:40Z</time>
      </trkpt>
      <trkpt lat="44.28222" lon="6.01606">
        <ele>599.0385742</ele>
        <time>2012-02-28T11:01:44Z</time>
      </trkpt>
      <trkpt lat="44.28236" lon="6.01583">
        <ele>599.0385742</ele>
        <time>2012-02-28T11:01:48Z</time>
      </trkpt>
      <trkpt lat="44.28233" lon="6.01532">
        <ele>599.0385742</ele>
        <time>2012-02-28T11:01:56Z</time>
      </trkpt>
      <trkpt lat="44.28232" lon="6.01531">
        <ele>599.0385742</ele>
        <time>2012-02-28T11:01:57Z</time>
      </trkpt>
      <trkpt lat="44.28149" lon="6.01449">
        <ele>598.5578613</ele>
        <time>2012-02-28T11:02:16Z</time>
      </trkpt>
      <trkpt lat="44.28074" lon="6.01375">
        <ele>596.635498</ele>
        <time>2012-02-28T11:02:31Z</time>
      </trkpt>
      <trkpt lat="44.28039" lon="6.01342">
        <ele>596.1547852</ele>
        <time>2012-02-28T11:02:38Z</time>
      </trkpt>
      <trkpt lat="44.28026" lon="6.0133">
        <ele>595.6740723</ele>
        <time>2012-02-28T11:02:41Z</time>
      </trkpt>
      <trkpt lat="44.27962" lon="6.01265">
        <ele>595.6740723</ele>
        <time>2012-02-28T11:02:57Z</time>
      </trkpt>
      <trkpt lat="44.279" lon="6.01199">
        <ele>592.7902832</ele>
        <time>2012-02-28T11:03:10Z</time>
      </trkpt>
      <trkpt lat="44.2785" lon="6.01143">
        <ele>592.7902832</ele>
        <time>2012-02-28T11:03:20Z</time>
      </trkpt>
      <trkpt lat="44.27839" lon="6.01132">
        <ele>590.8674316</ele>
        <time>2012-02-28T11:03:22Z</time>
      </trkpt>
      <trkpt lat="44.27769" lon="6.01057">
        <ele>587.9833984</ele>
        <time>2012-02-28T11:03:36Z</time>
      </trkpt>
      <trkpt lat="44.27755" lon="6.01045">
        <ele>587.0219727</ele>
        <time>2012-02-28T11:03:40Z</time>
      </trkpt>
      <trkpt lat="44.27708" lon="6.01034">
        <ele>585.5800781</ele>
        <time>2012-02-28T11:03:54Z</time>
      </trkpt>
      <trkpt lat="44.27704" lon="6.01002">
        <ele>586.5415039</ele>
        <time>2012-02-28T11:09:03Z</time>
      </trkpt>
      <trkpt lat="44.27721" lon="6.00938">
        <ele>587.9833984</ele>
        <time>2012-02-28T11:09:21Z</time>
      </trkpt>
      <trkpt lat="44.27738" lon="6.00881">
        <ele>589.4255371</ele>
        <time>2012-02-28T11:09:38Z</time>
      </trkpt>
      <trkpt lat="44.27741" lon="6.00821">
        <ele>592.7902832</ele>
        <time>2012-02-28T11:09:58Z</time>
      </trkpt>
      <trkpt lat="44.27743" lon="6.008">
        <ele>595.1933594</ele>
        <time>2012-02-28T11:10:06Z</time>
      </trkpt>
      <trkpt lat="44.27744" lon="6.00785">
        <ele>597.1159668</ele>
        <time>2012-02-28T11:10:13Z</time>
      </trkpt>
      <trkpt lat="44.27745" lon="6.00776">
        <ele>598.0773926</ele>
        <time>2012-02-28T11:10:17Z</time>
      </trkpt>
      <trkpt lat="44.27748" lon="6.00749">
        <ele>600.9611816</ele>
        <time>2012-02-28T11:10:30Z</time>
      </trkpt>
      <trkpt lat="44.27749" lon="6.00747">
        <ele>600.9611816</ele>
        <time>2012-02-28T11:10:31Z</time>
      </trkpt>
      <trkpt lat="44.27749" lon="6.0074">
        <ele>602.4030762</ele>
        <time>2012-02-28T11:10:35Z</time>
      </trkpt>
      <trkpt lat="44.27758" lon="6.00709">
        <ele>606.2485352</ele>
        <time>2012-02-28T11:10:51Z</time>
      </trkpt>
      <trkpt lat="44.27768" lon="6.00688">
        <ele>607.6906738</ele>
        <time>2012-02-28T11:11:03Z</time>
      </trkpt>
      <trkpt lat="44.27757" lon="6.00685">
        <ele>609.6132813</ele>
        <time>2012-02-28T11:11:09Z</time>
      </trkpt>
      <trkpt lat="44.27741" lon="6.0071">
        <ele>612.4970703</ele>
        <time>2012-02-28T11:11:26Z</time>
      </trkpt>
      <trkpt lat="44.27726" lon="6.0073">
        <ele>615.3811035</ele>
        <time>2012-02-28T11:11:42Z</time>
      </trkpt>
      <trkpt lat="44.27719" lon="6.00741">
        <ele>617.3037109</ele>
        <time>2012-02-28T11:11:50Z</time>
      </trkpt>
      <trkpt lat="44.27702" lon="6.0077">
        <ele>620.1877441</ele>
        <time>2012-02-28T11:12:10Z</time>
      </trkpt>
      <trkpt lat="44.27701" lon="6.00772">
        <ele>620.1877441</ele>
        <time>2012-02-28T11:12:11Z</time>
      </trkpt>
      <trkpt lat="44.27698" lon="6.00777">
        <ele>620.1877441</ele>
        <time>2012-02-28T11:12:14Z</time>
      </trkpt>
      <trkpt lat="44.27685" lon="6.00805">
        <ele>623.5524902</ele>
        <time>2012-02-28T11:12:30Z</time>
      </trkpt>
      <trkpt lat="44.27675" lon="6.00824">
        <ele>626.9169922</ele>
        <time>2012-02-28T11:12:44Z</time>
      </trkpt>
      <trkpt lat="44.27663" lon="6.00848">
        <ele>630.2814941</ele>
        <time>2012-02-28T11:13:00Z</time>
      </trkpt>
      <trkpt lat="44.27655" lon="6.00851">
        <ele>631.2429199</ele>
        <time>2012-02-28T11:13:06Z</time>
      </trkpt>
      <trkpt lat="44.27633" lon="6.00852">
        <ele>634.126709</ele>
        <time>2012-02-28T11:13:23Z</time>
      </trkpt>
      <trkpt lat="44.27626" lon="6.00853">
        <ele>635.5686035</ele>
        <time>2012-02-28T11:13:29Z</time>
      </trkpt>
      <trkpt lat="44.27616" lon="6.00856">
        <ele>637.4914551</ele>
        <time>2012-02-28T11:13:37Z</time>
      </trkpt>
      <trkpt lat="44.27603" lon="6.00847">
        <ele>638.4528809</ele>
        <time>2012-02-28T11:13:46Z</time>
      </trkpt>
      <trkpt lat="44.27602" lon="6.00844">
        <ele>638.9335938</ele>
        <time>2012-02-28T11:13:48Z</time>
      </trkpt>
      <trkpt lat="44.276" lon="6.00836">
        <ele>639.8947754</ele>
        <time>2012-02-28T11:13:52Z</time>
      </trkpt>
      <trkpt lat="44.27616" lon="6.00817">
        <ele>642.7788086</ele>
        <time>2012-02-28T11:14:07Z</time>
      </trkpt>
      <trkpt lat="44.27642" lon="6.00816">
        <ele>645.6625977</ele>
        <time>2012-02-28T11:14:24Z</time>
      </trkpt>
      <trkpt lat="44.27641" lon="6.00803">
        <ele>647.5852051</ele>
        <time>2012-02-28T11:14:33Z</time>
      </trkpt>
      <trkpt lat="44.27633" lon="6.008">
        <ele>649.0270996</ele>
        <time>2012-02-28T11:14:39Z</time>
      </trkpt>
      <trkpt lat="44.27613" lon="6.00789">
        <ele>652.8725586</ele>
        <time>2012-02-28T11:14:56Z</time>
      </trkpt>
      <trkpt lat="44.27587" lon="6.00764">
        <ele>655.7565918</ele>
        <time>2012-02-28T11:15:17Z</time>
      </trkpt>
      <trkpt lat="44.27562" lon="6.00753">
        <ele>659.1210938</ele>
        <time>2012-02-28T11:15:36Z</time>
      </trkpt>
      <trkpt lat="44.2754" lon="6.00746">
        <ele>662.4855957</ele>
        <time>2012-02-28T11:15:52Z</time>
      </trkpt>
      <trkpt lat="44.27532" lon="6.00743">
        <ele>663.9274902</ele>
        <time>2012-02-28T11:15:59Z</time>
      </trkpt>
      <trkpt lat="44.27506" lon="6.00742">
        <ele>666.8115234</ele>
        <time>2012-02-28T11:16:17Z</time>
      </trkpt>
      <trkpt lat="44.27499" lon="6.00742">
        <ele>667.7727051</ele>
        <time>2012-02-28T11:16:23Z</time>
      </trkpt>
      <trkpt lat="44.27487" lon="6.00735">
        <ele>670.1762695</ele>
        <time>2012-02-28T11:16:32Z</time>
      </trkpt>
      <trkpt lat="44.27482" lon="6.00702">
        <ele>673.5410156</ele>
        <time>2012-02-28T11:16:50Z</time>
      </trkpt>
      <trkpt lat="44.27477" lon="6.00673">
        <ele>676.9055176</ele>
        <time>2012-02-28T11:17:06Z</time>
      </trkpt>
      <trkpt lat="44.2748" lon="6.00667">
        <ele>676.4248047</ele>
        <time>2012-02-28T11:17:08Z</time>
      </trkpt>
      <trkpt lat="44.27489" lon="6.0066">
        <ele>676.9055176</ele>
        <time>2012-02-28T11:17:14Z</time>
      </trkpt>
      <trkpt lat="44.27516" lon="6.0065">
        <ele>678.3474121</ele>
        <time>2012-02-28T11:17:30Z</time>
      </trkpt>
      <trkpt lat="44.27549" lon="6.00633">
        <ele>680.7507324</ele>
        <time>2012-02-28T11:17:49Z</time>
      </trkpt>
      <trkpt lat="44.27572" lon="6.00604">
        <ele>682.6733398</ele>
        <time>2012-02-28T11:18:06Z</time>
      </trkpt>
      <trkpt lat="44.27588" lon="6.00568">
        <ele>684.5961914</ele>
        <time>2012-02-28T11:18:23Z</time>
      </trkpt>
      <trkpt lat="44.27605" lon="6.00538">
        <ele>687.9606934</ele>
        <time>2012-02-28T11:18:39Z</time>
      </trkpt>
      <trkpt lat="44.27612" lon="6.00526">
        <ele>690.3640137</ele>
        <time>2012-02-28T11:18:47Z</time>
      </trkpt>
      <trkpt lat="44.27633" lon="6.00498">
        <ele>692.767334</ele>
        <time>2012-02-28T11:19:05Z</time>
      </trkpt>
      <trkpt lat="44.27655" lon="6.00477">
        <ele>696.6125488</ele>
        <time>2012-02-28T11:19:23Z</time>
      </trkpt>
      <trkpt lat="44.27668" lon="6.0046">
        <ele>699.4963379</ele>
        <time>2012-02-28T11:19:37Z</time>
      </trkpt>
      <trkpt lat="44.27684" lon="6.00427">
        <ele>703.3417969</ele>
        <time>2012-02-28T11:19:57Z</time>
      </trkpt>
      <trkpt lat="44.27686" lon="6.00422">
        <ele>703.8225098</ele>
        <time>2012-02-28T11:20:00Z</time>
      </trkpt>
      <trkpt lat="44.27696" lon="6.00394">
        <ele>706.2255859</ele>
        <time>2012-02-28T11:20:17Z</time>
      </trkpt>
      <trkpt lat="44.27699" lon="6.00384">
        <ele>707.6677246</ele>
        <time>2012-02-28T11:20:22Z</time>
      </trkpt>
      <trkpt lat="44.27711" lon="6.00344">
        <ele>710.5515137</ele>
        <time>2012-02-28T11:20:43Z</time>
      </trkpt>
      <trkpt lat="44.27731" lon="6.003">
        <ele>713.9160156</ele>
        <time>2012-02-28T11:21:07Z</time>
      </trkpt>
      <trkpt lat="44.27729" lon="6.00273">
        <ele>716.800293</ele>
        <time>2012-02-28T11:21:21Z</time>
      </trkpt>
      <trkpt lat="44.27751" lon="6.00245">
        <ele>718.7229004</ele>
        <time>2012-02-28T11:21:37Z</time>
      </trkpt>
      <trkpt lat="44.27768" lon="6.00226">
        <ele>721.6066895</ele>
        <time>2012-02-28T11:21:51Z</time>
      </trkpt>
      <trkpt lat="44.27785" lon="6.00204">
        <ele>724.4907227</ele>
        <time>2012-02-28T11:22:07Z</time>
      </trkpt>
      <trkpt lat="44.27809" lon="6.0018">
        <ele>728.3359375</ele>
        <time>2012-02-28T11:22:26Z</time>
      </trkpt>
      <trkpt lat="44.27829" lon="6.0016">
        <ele>730.7392578</ele>
        <time>2012-02-28T11:22:41Z</time>
      </trkpt>
      <trkpt lat="44.27844" lon="6.00141">
        <ele>734.1040039</ele>
        <time>2012-02-28T11:22:55Z</time>
      </trkpt>
      <trkpt lat="44.27846" lon="6.00135">
        <ele>734.5847168</ele>
        <time>2012-02-28T11:22:59Z</time>
      </trkpt>
      <trkpt lat="44.27844" lon="6.00127">
        <ele>736.0266113</ele>
        <time>2012-02-28T11:23:05Z</time>
      </trkpt>
      <trkpt lat="44.27821" lon="6.00144">
        <ele>737.9492188</ele>
        <time>2012-02-28T11:23:22Z</time>
      </trkpt>
      <trkpt lat="44.2782" lon="6.00144">
        <ele>738.9106445</ele>
        <time>2012-02-28T11:23:23Z</time>
      </trkpt>
      <trkpt lat="44.27812" lon="6.00149">
        <ele>739.3911133</ele>
        <time>2012-02-28T11:23:29Z</time>
      </trkpt>
      <trkpt lat="44.27799" lon="6.00154">
        <ele>740.8330078</ele>
        <time>2012-02-28T11:23:38Z</time>
      </trkpt>
      <trkpt lat="44.27799" lon="6.00145">
        <ele>742.7558594</ele>
        <time>2012-02-28T11:23:44Z</time>
      </trkpt>
      <trkpt lat="44.27821" lon="6.00123">
        <ele>745.6396484</ele>
        <time>2012-02-28T11:24:02Z</time>
      </trkpt>
      <trkpt lat="44.27831" lon="6.00088">
        <ele>749.0043945</ele>
        <time>2012-02-28T11:24:21Z</time>
      </trkpt>
      <trkpt lat="44.27838" lon="6.00062">
        <ele>751.4077148</ele>
        <time>2012-02-28T11:24:35Z</time>
      </trkpt>
      <trkpt lat="44.27856" lon="6.00029">
        <ele>754.291748</ele>
        <time>2012-02-28T11:24:53Z</time>
      </trkpt>
      <trkpt lat="44.27883" lon="5.99989">
        <ele>756.2141113</ele>
        <time>2012-02-28T11:25:16Z</time>
      </trkpt>
      <trkpt lat="44.2789" lon="5.99975">
        <ele>757.65625</ele>
        <time>2012-02-28T11:25:23Z</time>
      </trkpt>
      <trkpt lat="44.27898" lon="5.99942">
        <ele>761.5014648</ele>
        <time>2012-02-28T11:25:40Z</time>
      </trkpt>
      <trkpt lat="44.27903" lon="5.99925">
        <ele>763.904541</ele>
        <time>2012-02-28T11:25:56Z</time>
      </trkpt>
      <trkpt lat="44.27907" lon="5.9991">
        <ele>765.8276367</ele>
        <time>2012-02-28T11:26:16Z</time>
      </trkpt>
      <trkpt lat="44.27917" lon="5.99904">
        <ele>766.3081055</ele>
        <time>2012-02-28T11:26:27Z</time>
      </trkpt>
      <trkpt lat="44.27935" lon="5.99912">
        <ele>768.2307129</ele>
        <time>2012-02-28T11:26:50Z</time>
      </trkpt>
      <trkpt lat="44.27937" lon="5.9991">
        <ele>769.1921387</ele>
        <time>2012-02-28T11:29:31Z</time>
      </trkpt>
      <trkpt lat="44.27948" lon="5.99907">
        <ele>769.6728516</ele>
        <time>2012-02-28T11:29:59Z</time>
      </trkpt>
      <trkpt lat="44.27988" lon="5.99889">
        <ele>772.0759277</ele>
        <time>2012-02-28T11:30:18Z</time>
      </trkpt>
      <trkpt lat="44.28017" lon="5.99867">
        <ele>774.9599609</ele>
        <time>2012-02-28T11:30:36Z</time>
      </trkpt>
      <trkpt lat="44.28044" lon="5.99838">
        <ele>775.9211426</ele>
        <time>2012-02-28T11:30:53Z</time>
      </trkpt>
      <trkpt lat="44.2809" lon="5.99807">
        <ele>777.84375</ele>
        <time>2012-02-28T11:31:17Z</time>
      </trkpt>
      <trkpt lat="44.28123" lon="5.99798">
        <ele>781.2087402</ele>
        <time>2012-02-28T11:31:36Z</time>
      </trkpt>
      <trkpt lat="44.28156" lon="5.99801">
        <ele>784.0925293</ele>
        <time>2012-02-28T11:31:53Z</time>
      </trkpt>
      <trkpt lat="44.28187" lon="5.99789">
        <ele>786.4958496</ele>
        <time>2012-02-28T11:32:10Z</time>
      </trkpt>
      <trkpt lat="44.28205" lon="5.99746">
        <ele>786.4958496</ele>
        <time>2012-02-28T11:32:25Z</time>
      </trkpt>
      <trkpt lat="44.28208" lon="5.99698">
        <ele>789.3796387</ele>
        <time>2012-02-28T11:32:41Z</time>
      </trkpt>
      <trkpt lat="44.28234" lon="5.9966">
        <ele>791.3022461</ele>
        <time>2012-02-28T11:32:58Z</time>
      </trkpt>
      <trkpt lat="44.28251" lon="5.9964">
        <ele>791.782959</ele>
        <time>2012-02-28T11:33:11Z</time>
      </trkpt>
      <trkpt lat="44.28266" lon="5.99621">
        <ele>790.8215332</ele>
        <time>2012-02-28T11:33:39Z</time>
      </trkpt>
      <trkpt lat="44.28295" lon="5.99574">
        <ele>789.3796387</ele>
        <time>2012-02-28T11:33:49Z</time>
      </trkpt>
      <trkpt lat="44.28366" lon="5.99511">
        <ele>786.9763184</ele>
        <time>2012-02-28T11:34:05Z</time>
      </trkpt>
      <trkpt lat="44.2841" lon="5.99474">
        <ele>787.4570313</ele>
        <time>2012-02-28T11:34:18Z</time>
      </trkpt>
      <trkpt lat="44.28459" lon="5.9943">
        <ele>789.3796387</ele>
        <time>2012-02-28T11:34:36Z</time>
      </trkpt>
      <trkpt lat="44.28506" lon="5.99392">
        <ele>789.3796387</ele>
        <time>2012-02-28T11:34:51Z</time>
      </trkpt>
      <trkpt lat="44.28523" lon="5.99401">
        <ele>786.4958496</ele>
        <time>2012-02-28T11:34:56Z</time>
      </trkpt>
      <trkpt lat="44.28546" lon="5.99418">
        <ele>784.5732422</ele>
        <time>2012-02-28T11:35:01Z</time>
      </trkpt>
      <trkpt lat="44.28563" lon="5.99424">
        <ele>781.2087402</ele>
        <time>2012-02-28T11:35:04Z</time>
      </trkpt>
      <trkpt lat="44.28582" lon="5.9942">
        <ele>780.7280273</ele>
        <time>2012-02-28T11:35:07Z</time>
      </trkpt>
      <trkpt lat="44.28626" lon="5.99393">
        <ele>782.1699219</ele>
        <time>2012-02-28T11:35:20Z</time>
      </trkpt>
      <trkpt lat="44.28632" lon="5.99388">
        <ele>782.6506348</ele>
        <time>2012-02-28T11:35:22Z</time>
      </trkpt>
      <trkpt lat="44.28647" lon="5.99362">
        <ele>781.2087402</ele>
        <time>2012-02-28T11:35:27Z</time>
      </trkpt>
      <trkpt lat="44.28663" lon="5.99349">
        <ele>781.2087402</ele>
        <time>2012-02-28T11:35:31Z</time>
      </trkpt>
      <trkpt lat="44.28726" lon="5.99302">
        <ele>779.7663574</ele>
        <time>2012-02-28T11:35:47Z</time>
      </trkpt>
      <trkpt lat="44.28805" lon="5.99226">
        <ele>776.4018555</ele>
        <time>2012-02-28T11:36:05Z</time>
      </trkpt>
      <trkpt lat="44.28809" lon="5.99222">
        <ele>776.4018555</ele>
        <time>2012-02-28T11:36:06Z</time>
      </trkpt>
      <trkpt lat="44.28845" lon="5.99228">
        <ele>775.9211426</ele>
        <time>2012-02-28T11:36:15Z</time>
      </trkpt>
      <trkpt lat="44.28855" lon="5.99244">
        <ele>773.9985352</ele>
        <time>2012-02-28T11:36:18Z</time>
      </trkpt>
      <trkpt lat="44.28893" lon="5.99317">
        <ele>770.6340332</ele>
        <time>2012-02-28T11:36:30Z</time>
      </trkpt>
      <trkpt lat="44.28918" lon="5.99352">
        <ele>768.7114258</ele>
        <time>2012-02-28T11:36:38Z</time>
      </trkpt>
      <trkpt lat="44.28958" lon="5.99374">
        <ele>768.7114258</ele>
        <time>2012-02-28T11:36:49Z</time>
      </trkpt>
      <trkpt lat="44.28979" lon="5.99396">
        <ele>771.5952148</ele>
        <time>2012-02-28T11:37:00Z</time>
      </trkpt>
      <trkpt lat="44.29009" lon="5.9941">
        <ele>774.9599609</ele>
        <time>2012-02-28T11:37:17Z</time>
      </trkpt>
      <trkpt lat="44.29039" lon="5.99371">
        <ele>776.8825684</ele>
        <time>2012-02-28T11:37:35Z</time>
      </trkpt>
      <trkpt lat="44.29077" lon="5.99317">
        <ele>779.7663574</ele>
        <time>2012-02-28T11:37:58Z</time>
      </trkpt>
      <trkpt lat="44.29087" lon="5.99256">
        <ele>781.2087402</ele>
        <time>2012-02-28T11:38:17Z</time>
      </trkpt>
      <trkpt lat="44.29089" lon="5.99225">
        <ele>780.7280273</ele>
        <time>2012-02-28T11:38:23Z</time>
      </trkpt>
      <trkpt lat="44.29094" lon="5.9909">
        <ele>780.2473145</ele>
        <time>2012-02-28T11:38:46Z</time>
      </trkpt>
      <trkpt lat="44.29093" lon="5.99005">
        <ele>782.6506348</ele>
        <time>2012-02-28T11:39:03Z</time>
      </trkpt>
      <trkpt lat="44.29102" lon="5.98903">
        <ele>785.0539551</ele>
        <time>2012-02-28T11:39:23Z</time>
      </trkpt>
      <trkpt lat="44.291" lon="5.98901">
        <ele>783.1311035</ele>
        <time>2012-02-28T11:39:24Z</time>
      </trkpt>
      <trkpt lat="44.29044" lon="5.98821">
        <ele>783.1311035</ele>
        <time>2012-02-28T11:39:44Z</time>
      </trkpt>
      <trkpt lat="44.2905" lon="5.988">
        <ele>783.6118164</ele>
        <time>2012-02-28T11:39:48Z</time>
      </trkpt>
      <trkpt lat="44.29061" lon="5.98782">
        <ele>783.1311035</ele>
        <time>2012-02-28T11:39:52Z</time>
      </trkpt>
      <trkpt lat="44.29109" lon="5.98692">
        <ele>785.0539551</ele>
        <time>2012-02-28T11:40:13Z</time>
      </trkpt>
      <trkpt lat="44.29118" lon="5.9867">
        <ele>784.5732422</ele>
        <time>2012-02-28T11:40:17Z</time>
      </trkpt>
      <trkpt lat="44.29136" lon="5.98658">
        <ele>784.0925293</ele>
        <time>2012-02-28T11:40:22Z</time>
      </trkpt>
      <trkpt lat="44.29181" lon="5.98643">
        <ele>784.5732422</ele>
        <time>2012-02-28T11:40:35Z</time>
      </trkpt>
      <trkpt lat="44.29212" lon="5.98595">
        <ele>787.4570313</ele>
        <time>2012-02-28T11:40:52Z</time>
      </trkpt>
      <trkpt lat="44.29211" lon="5.98547">
        <ele>790.3410645</ele>
        <time>2012-02-28T11:41:11Z</time>
      </trkpt>
      <trkpt lat="44.29203" lon="5.98512">
        <ele>793.2248535</ele>
        <time>2012-02-28T11:41:27Z</time>
      </trkpt>
      <trkpt lat="44.29194" lon="5.98469">
        <ele>796.5898438</ele>
        <time>2012-02-28T11:41:45Z</time>
      </trkpt>
      <trkpt lat="44.29215" lon="5.98429">
        <ele>798.9929199</ele>
        <time>2012-02-28T11:42:03Z</time>
      </trkpt>
      <trkpt lat="44.29234" lon="5.98412">
        <ele>802.3574219</ele>
        <time>2012-02-28T11:42:16Z</time>
      </trkpt>
      <trkpt lat="44.29258" lon="5.98372">
        <ele>802.3574219</ele>
        <time>2012-02-28T11:42:33Z</time>
      </trkpt>
      <trkpt lat="44.29264" lon="5.98343">
        <ele>799.9543457</ele>
        <time>2012-02-28T11:42:38Z</time>
      </trkpt>
      <trkpt lat="44.29266" lon="5.98332">
        <ele>799.9543457</ele>
        <time>2012-02-28T11:42:40Z</time>
      </trkpt>
      <trkpt lat="44.29266" lon="5.98316">
        <ele>798.9929199</ele>
        <time>2012-02-28T11:42:43Z</time>
      </trkpt>
      <trkpt lat="44.29275" lon="5.98288">
        <ele>798.0317383</ele>
        <time>2012-02-28T11:42:48Z</time>
      </trkpt>
      <trkpt lat="44.29291" lon="5.98249">
        <ele>801.3962402</ele>
        <time>2012-02-28T11:43:02Z</time>
      </trkpt>
      <trkpt lat="44.29295" lon="5.98205">
        <ele>804.2802734</ele>
        <time>2012-02-28T11:43:18Z</time>
      </trkpt>
      <trkpt lat="44.29274" lon="5.98163">
        <ele>802.8381348</ele>
        <time>2012-02-28T11:43:30Z</time>
      </trkpt>
      <trkpt lat="44.29286" lon="5.98137">
        <ele>804.2802734</ele>
        <time>2012-02-28T11:43:37Z</time>
      </trkpt>
      <trkpt lat="44.29337" lon="5.98103">
        <ele>806.2026367</ele>
        <time>2012-02-28T11:43:58Z</time>
      </trkpt>
      <trkpt lat="44.2934" lon="5.98095">
        <ele>806.2026367</ele>
        <time>2012-02-28T11:44:01Z</time>
      </trkpt>
      <trkpt lat="44.29331" lon="5.9808">
        <ele>805.722168</ele>
        <time>2012-02-28T11:44:06Z</time>
      </trkpt>
      <trkpt lat="44.29312" lon="5.98071">
        <ele>804.7607422</ele>
        <time>2012-02-28T11:44:10Z</time>
      </trkpt>
      <trkpt lat="44.29301" lon="5.9805">
        <ele>804.7607422</ele>
        <time>2012-02-28T11:44:15Z</time>
      </trkpt>
      <trkpt lat="44.29304" lon="5.98002">
        <ele>806.6833496</ele>
        <time>2012-02-28T11:44:29Z</time>
      </trkpt>
      <trkpt lat="44.29271" lon="5.97997">
        <ele>809.0866699</ele>
        <time>2012-02-28T11:44:44Z</time>
      </trkpt>
      <trkpt lat="44.29263" lon="5.97962">
        <ele>809.5673828</ele>
        <time>2012-02-28T11:44:58Z</time>
      </trkpt>
      <trkpt lat="44.29271" lon="5.97916">
        <ele>808.1254883</ele>
        <time>2012-02-28T11:45:12Z</time>
      </trkpt>
      <trkpt lat="44.29271" lon="5.97895">
        <ele>808.1254883</ele>
        <time>2012-02-28T11:45:16Z</time>
      </trkpt>
      <trkpt lat="44.29263" lon="5.97828">
        <ele>808.605957</ele>
        <time>2012-02-28T11:45:30Z</time>
      </trkpt>
      <trkpt lat="44.29249" lon="5.97764">
        <ele>808.605957</ele>
        <time>2012-02-28T11:45:45Z</time>
      </trkpt>
      <trkpt lat="44.29258" lon="5.97729">
        <ele>808.605957</ele>
        <time>2012-02-28T11:45:54Z</time>
      </trkpt>
      <trkpt lat="44.29276" lon="5.97698">
        <ele>807.6447754</ele>
        <time>2012-02-28T11:46:00Z</time>
      </trkpt>
      <trkpt lat="44.2929" lon="5.97673">
        <ele>807.1640625</ele>
        <time>2012-02-28T11:46:04Z</time>
      </trkpt>
      <trkpt lat="44.29303" lon="5.97642">
        <ele>806.6833496</ele>
        <time>2012-02-28T11:46:09Z</time>
      </trkpt>
      <trkpt lat="44.29276" lon="5.97591">
        <ele>806.2026367</ele>
        <time>2012-02-28T11:46:19Z</time>
      </trkpt>
      <trkpt lat="44.29271" lon="5.9759">
        <ele>806.2026367</ele>
        <time>2012-02-28T11:46:20Z</time>
      </trkpt>
      <trkpt lat="44.29203" lon="5.97573">
        <ele>803.3188477</ele>
        <time>2012-02-28T11:46:33Z</time>
      </trkpt>
      <trkpt lat="44.29185" lon="5.97554">
        <ele>803.3188477</ele>
        <time>2012-02-28T11:46:38Z</time>
      </trkpt>
      <trkpt lat="44.2918" lon="5.97535">
        <ele>803.3188477</ele>
        <time>2012-02-28T11:46:41Z</time>
      </trkpt>
      <trkpt lat="44.29182" lon="5.97496">
        <ele>800.4350586</ele>
        <time>2012-02-28T11:46:47Z</time>
      </trkpt>
      <trkpt lat="44.292" lon="5.97455">
        <ele>798.0317383</ele>
        <time>2012-02-28T11:46:53Z</time>
      </trkpt>
      <trkpt lat="44.29207" lon="5.97444">
        <ele>797.0703125</ele>
        <time>2012-02-28T11:46:55Z</time>
      </trkpt>
      <trkpt lat="44.29213" lon="5.97434">
        <ele>796.1091309</ele>
        <time>2012-02-28T11:46:57Z</time>
      </trkpt>
      <trkpt lat="44.292" lon="5.9741">
        <ele>795.1474609</ele>
        <time>2012-02-28T11:47:04Z</time>
      </trkpt>
      <trkpt lat="44.29165" lon="5.974">
        <ele>793.2248535</ele>
        <time>2012-02-28T11:47:11Z</time>
      </trkpt>
      <trkpt lat="44.29141" lon="5.97365">
        <ele>789.3796387</ele>
        <time>2012-02-28T11:47:21Z</time>
      </trkpt>
      <trkpt lat="44.29123" lon="5.97352">
        <ele>786.9763184</ele>
        <time>2012-02-28T11:47:31Z</time>
      </trkpt>
      <trkpt lat="44.29123" lon="5.97352">
        <ele>787.4570313</ele>
        <time>2012-02-28T11:48:27Z</time>
      </trkpt>
      <trkpt lat="44.29112" lon="5.97359">
        <ele>786.9763184</ele>
        <time>2012-02-28T11:48:32Z</time>
      </trkpt>
      <trkpt lat="44.29081" lon="5.97352">
        <ele>784.5732422</ele>
        <time>2012-02-28T11:48:39Z</time>
      </trkpt>
      <trkpt lat="44.29075" lon="5.97309">
        <ele>780.7280273</ele>
        <time>2012-02-28T11:48:45Z</time>
      </trkpt>
      <trkpt lat="44.29076" lon="5.97303">
        <ele>780.7280273</ele>
        <time>2012-02-28T11:48:46Z</time>
      </trkpt>
      <trkpt lat="44.29076" lon="5.97298">
        <ele>780.2473145</ele>
        <time>2012-02-28T11:48:47Z</time>
      </trkpt>
      <trkpt lat="44.2908" lon="5.9728">
        <ele>779.7663574</ele>
        <time>2012-02-28T11:48:50Z</time>
      </trkpt>
      <trkpt lat="44.29068" lon="5.97243">
        <ele>777.3632813</ele>
        <time>2012-02-28T11:48:55Z</time>
      </trkpt>
      <trkpt lat="44.29054" lon="5.97215">
        <ele>775.4404297</ele>
        <time>2012-02-28T11:48:59Z</time>
      </trkpt>
      <trkpt lat="44.2904" lon="5.97199">
        <ele>773.9985352</ele>
        <time>2012-02-28T11:49:02Z</time>
      </trkpt>
      <trkpt lat="44.29036" lon="5.97193">
        <ele>772.5566406</ele>
        <time>2012-02-28T11:49:03Z</time>
      </trkpt>
      <trkpt lat="44.29022" lon="5.97173">
        <ele>771.1147461</ele>
        <time>2012-02-28T11:49:06Z</time>
      </trkpt>
      <trkpt lat="44.28997" lon="5.97134">
        <ele>767.75</ele>
        <time>2012-02-28T11:49:12Z</time>
      </trkpt>
      <trkpt lat="44.28991" lon="5.97125">
        <ele>764.385498</ele>
        <time>2012-02-28T11:49:14Z</time>
      </trkpt>
      <trkpt lat="44.28987" lon="5.97124">
        <ele>766.7888184</ele>
        <time>2012-02-28T11:49:15Z</time>
      </trkpt>
      <trkpt lat="44.28967" lon="5.97141">
        <ele>764.8662109</ele>
        <time>2012-02-28T11:49:22Z</time>
      </trkpt>
      <trkpt lat="44.28967" lon="5.97192">
        <ele>762.9433594</ele>
        <time>2012-02-28T11:49:30Z</time>
      </trkpt>
      <trkpt lat="44.28964" lon="5.97207">
        <ele>761.5014648</ele>
        <time>2012-02-28T11:49:35Z</time>
      </trkpt>
      <trkpt lat="44.2895" lon="5.97193">
        <ele>758.6174316</ele>
        <time>2012-02-28T11:49:41Z</time>
      </trkpt>
      <trkpt lat="44.28945" lon="5.9717">
        <ele>757.1755371</ele>
        <time>2012-02-28T11:49:44Z</time>
      </trkpt>
      <trkpt lat="44.28921" lon="5.97125">
        <ele>754.7722168</ele>
        <time>2012-02-28T11:49:50Z</time>
      </trkpt>
      <trkpt lat="44.28909" lon="5.97104">
        <ele>753.8110352</ele>
        <time>2012-02-28T11:49:53Z</time>
      </trkpt>
      <trkpt lat="44.289" lon="5.97093">
        <ele>752.8496094</ele>
        <time>2012-02-28T11:49:55Z</time>
      </trkpt>
      <trkpt lat="44.28887" lon="5.97067">
        <ele>749.9658203</ele>
        <time>2012-02-28T11:49:59Z</time>
      </trkpt>
      <trkpt lat="44.2889" lon="5.97028">
        <ele>748.5236816</ele>
        <time>2012-02-28T11:50:04Z</time>
      </trkpt>
      <trkpt lat="44.28903" lon="5.97008">
        <ele>746.1203613</ele>
        <time>2012-02-28T11:50:07Z</time>
      </trkpt>
      <trkpt lat="44.2891" lon="5.96996">
        <ele>745.6396484</ele>
        <time>2012-02-28T11:50:09Z</time>
      </trkpt>
      <trkpt lat="44.28924" lon="5.96963">
        <ele>742.7558594</ele>
        <time>2012-02-28T11:50:14Z</time>
      </trkpt>
      <trkpt lat="44.2894" lon="5.96951">
        <ele>741.7944336</ele>
        <time>2012-02-28T11:50:18Z</time>
      </trkpt>
      <trkpt lat="44.28948" lon="5.96948">
        <ele>740.8330078</ele>
        <time>2012-02-28T11:50:20Z</time>
      </trkpt>
      <trkpt lat="44.28941" lon="5.96927">
        <ele>738.4299316</ele>
        <time>2012-02-28T11:50:26Z</time>
      </trkpt>
      <trkpt lat="44.28937" lon="5.96928">
        <ele>737.9492188</ele>
        <time>2012-02-28T11:50:27Z</time>
      </trkpt>
      <trkpt lat="44.28918" lon="5.96933">
        <ele>736.987793</ele>
        <time>2012-02-28T11:50:31Z</time>
      </trkpt>
      <trkpt lat="44.28883" lon="5.96924">
        <ele>735.5458984</ele>
        <time>2012-02-28T11:50:37Z</time>
      </trkpt>
      <trkpt lat="44.28872" lon="5.96918">
        <ele>735.0654297</ele>
        <time>2012-02-28T11:50:39Z</time>
      </trkpt>
      <trkpt lat="44.28857" lon="5.9689">
        <ele>733.1425781</ele>
        <time>2012-02-28T11:50:44Z</time>
      </trkpt>
      <trkpt lat="44.28857" lon="5.96881">
        <ele>732.1813965</ele>
        <time>2012-02-28T11:50:45Z</time>
      </trkpt>
      <trkpt lat="44.28851" lon="5.96855">
        <ele>731.2199707</ele>
        <time>2012-02-28T11:50:48Z</time>
      </trkpt>
      <trkpt lat="44.28846" lon="5.96829">
        <ele>728.8166504</ele>
        <time>2012-02-28T11:50:51Z</time>
      </trkpt>
      <trkpt lat="44.28842" lon="5.96793">
        <ele>726.894043</ele>
        <time>2012-02-28T11:50:55Z</time>
      </trkpt>
      <trkpt lat="44.28845" lon="5.96768">
        <ele>724.4907227</ele>
        <time>2012-02-28T11:50:58Z</time>
      </trkpt>
      <trkpt lat="44.28855" lon="5.96737">
        <ele>722.5681152</ele>
        <time>2012-02-28T11:51:02Z</time>
      </trkpt>
      <trkpt lat="44.28861" lon="5.96723">
        <ele>720.6455078</ele>
        <time>2012-02-28T11:51:04Z</time>
      </trkpt>
      <trkpt lat="44.28855" lon="5.96678">
        <ele>717.7614746</ele>
        <time>2012-02-28T11:51:10Z</time>
      </trkpt>
      <trkpt lat="44.28852" lon="5.96667">
        <ele>716.800293</ele>
        <time>2012-02-28T11:51:12Z</time>
      </trkpt>
      <trkpt lat="44.28838" lon="5.96658">
        <ele>715.3581543</ele>
        <time>2012-02-28T11:51:15Z</time>
      </trkpt>
      <trkpt lat="44.28818" lon="5.96655">
        <ele>713.9160156</ele>
        <time>2012-02-28T11:51:18Z</time>
      </trkpt>
      <trkpt lat="44.28813" lon="5.96653">
        <ele>713.4355469</ele>
        <time>2012-02-28T11:51:19Z</time>
      </trkpt>
      <trkpt lat="44.28803" lon="5.96644">
        <ele>711.5129395</ele>
        <time>2012-02-28T11:51:21Z</time>
      </trkpt>
      <trkpt lat="44.28787" lon="5.96619">
        <ele>710.0708008</ele>
        <time>2012-02-28T11:51:25Z</time>
      </trkpt>
      <trkpt lat="44.28778" lon="5.96597">
        <ele>708.6289063</ele>
        <time>2012-02-28T11:51:28Z</time>
      </trkpt>
      <trkpt lat="44.28775" lon="5.96589">
        <ele>707.6677246</ele>
        <time>2012-02-28T11:51:29Z</time>
      </trkpt>
      <trkpt lat="44.28765" lon="5.96561">
        <ele>705.2644043</ele>
        <time>2012-02-28T11:51:35Z</time>
      </trkpt>
      <trkpt lat="44.28781" lon="5.96555">
        <ele>703.8225098</ele>
        <time>2012-02-28T11:51:40Z</time>
      </trkpt>
      <trkpt lat="44.28812" lon="5.9658">
        <ele>700.9384766</ele>
        <time>2012-02-28T11:51:47Z</time>
      </trkpt>
      <trkpt lat="44.2882" lon="5.96586">
        <ele>699.9770508</ele>
        <time>2012-02-28T11:51:49Z</time>
      </trkpt>
      <trkpt lat="44.28836" lon="5.96592">
        <ele>698.5349121</ele>
        <time>2012-02-28T11:51:54Z</time>
      </trkpt>
      <trkpt lat="44.28838" lon="5.96568">
        <ele>697.0930176</ele>
        <time>2012-02-28T11:52:00Z</time>
      </trkpt>
      <trkpt lat="44.28827" lon="5.96538">
        <ele>694.6896973</ele>
        <time>2012-02-28T11:52:05Z</time>
      </trkpt>
      <trkpt lat="44.28822" lon="5.96525">
        <ele>694.2092285</ele>
        <time>2012-02-28T11:52:07Z</time>
      </trkpt>
      <trkpt lat="44.28807" lon="5.96501">
        <ele>692.2866211</ele>
        <time>2012-02-28T11:52:11Z</time>
      </trkpt>
      <trkpt lat="44.28799" lon="5.96491">
        <ele>691.3251953</ele>
        <time>2012-02-28T11:52:13Z</time>
      </trkpt>
      <trkpt lat="44.28787" lon="5.96473">
        <ele>690.3640137</ele>
        <time>2012-02-28T11:52:16Z</time>
      </trkpt>
      <trkpt lat="44.2878" lon="5.96449">
        <ele>688.9221191</ele>
        <time>2012-02-28T11:52:19Z</time>
      </trkpt>
      <trkpt lat="44.28769" lon="5.96398">
        <ele>685.557373</ele>
        <time>2012-02-28T11:52:25Z</time>
      </trkpt>
      <trkpt lat="44.28746" lon="5.96328">
        <ele>682.6733398</ele>
        <time>2012-02-28T11:52:36Z</time>
      </trkpt>
      <trkpt lat="44.28764" lon="5.96306">
        <ele>680.2700195</ele>
        <time>2012-02-28T11:52:43Z</time>
      </trkpt>
      <trkpt lat="44.28771" lon="5.96313">
        <ele>679.7893066</ele>
        <time>2012-02-28T11:52:45Z</time>
      </trkpt>
      <trkpt lat="44.28809" lon="5.96349">
        <ele>676.4248047</ele>
        <time>2012-02-28T11:52:52Z</time>
      </trkpt>
      <trkpt lat="44.28828" lon="5.96366">
        <ele>674.5021973</ele>
        <time>2012-02-28T11:52:56Z</time>
      </trkpt>
      <trkpt lat="44.28833" lon="5.9637">
        <ele>673.5410156</ele>
        <time>2012-02-28T11:52:57Z</time>
      </trkpt>
      <trkpt lat="44.28842" lon="5.96386">
        <ele>672.5795898</ele>
        <time>2012-02-28T11:53:00Z</time>
      </trkpt>
      <trkpt lat="44.28861" lon="5.9641">
        <ele>669.2150879</ele>
        <time>2012-02-28T11:53:08Z</time>
      </trkpt>
      <trkpt lat="44.28865" lon="5.96392">
        <ele>668.2536621</ele>
        <time>2012-02-28T11:53:14Z</time>
      </trkpt>
      <trkpt lat="44.28853" lon="5.96336">
        <ele>664.4082031</ele>
        <time>2012-02-28T11:53:22Z</time>
      </trkpt>
      <trkpt lat="44.28853" lon="5.96328">
        <ele>664.4082031</ele>
        <time>2012-02-28T11:53:23Z</time>
      </trkpt>
      <trkpt lat="44.2885" lon="5.96305">
        <ele>662.4855957</ele>
        <time>2012-02-28T11:53:26Z</time>
      </trkpt>
      <trkpt lat="44.28847" lon="5.96275">
        <ele>661.0437012</ele>
        <time>2012-02-28T11:53:30Z</time>
      </trkpt>
      <trkpt lat="44.28841" lon="5.96255">
        <ele>659.6018066</ele>
        <time>2012-02-28T11:53:33Z</time>
      </trkpt>
      <trkpt lat="44.28827" lon="5.96217">
        <ele>656.2370605</ele>
        <time>2012-02-28T11:53:39Z</time>
      </trkpt>
      <trkpt lat="44.28814" lon="5.96195">
        <ele>655.7565918</ele>
        <time>2012-02-28T11:53:43Z</time>
      </trkpt>
      <trkpt lat="44.28805" lon="5.96183">
        <ele>655.2758789</ele>
        <time>2012-02-28T11:53:45Z</time>
      </trkpt>
      <trkpt lat="44.28795" lon="5.96172">
        <ele>654.3146973</ele>
        <time>2012-02-28T11:53:47Z</time>
      </trkpt>
      <trkpt lat="44.2879" lon="5.96167">
        <ele>653.8339844</ele>
        <time>2012-02-28T11:53:48Z</time>
      </trkpt>
      <trkpt lat="44.28777" lon="5.96153">
        <ele>653.3532715</ele>
        <time>2012-02-28T11:53:51Z</time>
      </trkpt>
      <trkpt lat="44.28763" lon="5.96152">
        <ele>651.4304199</ele>
        <time>2012-02-28T11:53:54Z</time>
      </trkpt>
      <trkpt lat="44.28759" lon="5.9615">
        <ele>650.949707</ele>
        <time>2012-02-28T11:53:55Z</time>
      </trkpt>
      <trkpt lat="44.28767" lon="5.96131">
        <ele>649.0270996</ele>
        <time>2012-02-28T11:54:01Z</time>
      </trkpt>
      <trkpt lat="44.28771" lon="5.96134">
        <ele>648.5463867</ele>
        <time>2012-02-28T11:54:02Z</time>
      </trkpt>
      <trkpt lat="44.28815" lon="5.96156">
        <ele>646.1433105</ele>
        <time>2012-02-28T11:54:10Z</time>
      </trkpt>
      <trkpt lat="44.28827" lon="5.96163">
        <ele>644.7011719</ele>
        <time>2012-02-28T11:54:12Z</time>
      </trkpt>
      <trkpt lat="44.28838" lon="5.96168">
        <ele>643.7399902</ele>
        <time>2012-02-28T11:54:14Z</time>
      </trkpt>
      <trkpt lat="44.2885" lon="5.96177">
        <ele>642.2980957</ele>
        <time>2012-02-28T11:54:17Z</time>
      </trkpt>
      <trkpt lat="44.28853" lon="5.96182">
        <ele>641.8173828</ele>
        <time>2012-02-28T11:54:18Z</time>
      </trkpt>
      <trkpt lat="44.28861" lon="5.96197">
        <ele>641.3366699</ele>
        <time>2012-02-28T11:54:21Z</time>
      </trkpt>
      <trkpt lat="44.2887" lon="5.96195">
        <ele>639.8947754</ele>
        <time>2012-02-28T11:54:24Z</time>
      </trkpt>
      <trkpt lat="44.28868" lon="5.96171">
        <ele>638.4528809</ele>
        <time>2012-02-28T11:54:29Z</time>
      </trkpt>
      <trkpt lat="44.28838" lon="5.96122">
        <ele>634.126709</ele>
        <time>2012-02-28T11:54:37Z</time>
      </trkpt>
      <trkpt lat="44.28834" lon="5.96116">
        <ele>634.126709</ele>
        <time>2012-02-28T11:54:38Z</time>
      </trkpt>
      <trkpt lat="44.28813" lon="5.96091">
        <ele>631.7233887</ele>
        <time>2012-02-28T11:54:43Z</time>
      </trkpt>
      <trkpt lat="44.28803" lon="5.96083">
        <ele>630.2814941</ele>
        <time>2012-02-28T11:54:45Z</time>
      </trkpt>
      <trkpt lat="44.28795" lon="5.96076">
        <ele>629.8007813</ele>
        <time>2012-02-28T11:54:47Z</time>
      </trkpt>
      <trkpt lat="44.28783" lon="5.96048">
        <ele>626.9169922</ele>
        <time>2012-02-28T11:54:53Z</time>
      </trkpt>
      <trkpt lat="44.28784" lon="5.96029">
        <ele>626.9169922</ele>
        <time>2012-02-28T11:54:56Z</time>
      </trkpt>
      <trkpt lat="44.2878" lon="5.96008">
        <ele>624.5136719</ele>
        <time>2012-02-28T11:55:00Z</time>
      </trkpt>
      <trkpt lat="44.28764" lon="5.95965">
        <ele>621.6296387</ele>
        <time>2012-02-28T11:55:08Z</time>
      </trkpt>
      <trkpt lat="44.28748" lon="5.95946">
        <ele>619.7070313</ele>
        <time>2012-02-28T11:55:14Z</time>
      </trkpt>
      <trkpt lat="44.28725" lon="5.95946">
        <ele>618.2648926</ele>
        <time>2012-02-28T11:55:19Z</time>
      </trkpt>
      <trkpt lat="44.28726" lon="5.95924">
        <ele>615.3811035</ele>
        <time>2012-02-28T11:55:27Z</time>
      </trkpt>
      <trkpt lat="44.28741" lon="5.9592">
        <ele>613.4584961</ele>
        <time>2012-02-28T11:55:31Z</time>
      </trkpt>
      <trkpt lat="44.28747" lon="5.95914">
        <ele>612.9777832</ele>
        <time>2012-02-28T11:55:33Z</time>
      </trkpt>
      <trkpt lat="44.28752" lon="5.95908">
        <ele>612.4970703</ele>
        <time>2012-02-28T11:55:35Z</time>
      </trkpt>
      <trkpt lat="44.28772" lon="5.9586">
        <ele>608.6518555</ele>
        <time>2012-02-28T11:55:48Z</time>
      </trkpt>
      <trkpt lat="44.28791" lon="5.95821">
        <ele>606.729248</ele>
        <time>2012-02-28T11:55:56Z</time>
      </trkpt>
      <trkpt lat="44.28804" lon="5.95826">
        <ele>605.7680664</ele>
        <time>2012-02-28T11:56:02Z</time>
      </trkpt>
      <trkpt lat="44.28828" lon="5.95787">
        <ele>605.7680664</ele>
        <time>2012-02-28T11:56:16Z</time>
      </trkpt>
      <trkpt lat="44.28835" lon="5.95731">
        <ele>605.2873535</ele>
        <time>2012-02-28T11:56:28Z</time>
      </trkpt>
      <trkpt lat="44.28834" lon="5.95704">
        <ele>608.1713867</ele>
        <time>2012-02-28T11:56:35Z</time>
      </trkpt>
      <trkpt lat="44.28834" lon="5.95704">
        <ele>608.1713867</ele>
        <time>2012-02-28T11:56:36Z</time>
      </trkpt>
      <trkpt lat="44.28834" lon="5.95704">
        <ele>606.729248</ele>
        <time>2012-02-28T11:56:38Z</time>
      </trkpt>
      <trkpt lat="44.28834" lon="5.95704">
        <ele>606.729248</ele>
        <time>2012-02-28T11:56:58Z</time>
      </trkpt>
      <trkpt lat="44.28833" lon="5.95697">
        <ele>607.2099609</ele>
        <time>2012-02-28T11:58:31Z</time>
      </trkpt>
      <trkpt lat="44.28838" lon="5.95698">
        <ele>607.6906738</ele>
        <time>2012-02-28T11:58:34Z</time>
      </trkpt>
      <trkpt lat="44.28869" lon="5.9571">
        <ele>609.6132813</ele>
        <time>2012-02-28T11:58:50Z</time>
      </trkpt>
      <trkpt lat="44.28892" lon="5.95725">
        <ele>611.0551758</ele>
        <time>2012-02-28T11:59:04Z</time>
      </trkpt>
      <trkpt lat="44.28922" lon="5.9575">
        <ele>611.0551758</ele>
        <time>2012-02-28T11:59:16Z</time>
      </trkpt>
      <trkpt lat="44.28962" lon="5.95799">
        <ele>611.0551758</ele>
        <time>2012-02-28T11:59:32Z</time>
      </trkpt>
      <trkpt lat="44.29007" lon="5.95862">
        <ele>612.0166016</ele>
        <time>2012-02-28T11:59:52Z</time>
      </trkpt>
      <trkpt lat="44.29035" lon="5.95905">
        <ele>612.0166016</ele>
        <time>2012-02-28T12:00:04Z</time>
      </trkpt>
      <trkpt lat="44.29055" lon="5.95905">
        <ele>612.4970703</ele>
        <time>2012-02-28T12:00:09Z</time>
      </trkpt>
      <trkpt lat="44.29131" lon="5.95915">
        <ele>612.9777832</ele>
        <time>2012-02-28T12:00:28Z</time>
      </trkpt>
      <trkpt lat="44.29204" lon="5.95922">
        <ele>613.9389648</ele>
        <time>2012-02-28T12:00:48Z</time>
      </trkpt>
      <trkpt lat="44.29266" lon="5.9595">
        <ele>614.9003906</ele>
        <time>2012-02-28T12:01:07Z</time>
      </trkpt>
      <trkpt lat="44.29345" lon="5.95995">
        <ele>615.8618164</ele>
        <time>2012-02-28T12:01:32Z</time>
      </trkpt>
      <trkpt lat="44.29416" lon="5.96016">
        <ele>615.8618164</ele>
        <time>2012-02-28T12:01:53Z</time>
      </trkpt>
      <trkpt lat="44.29471" lon="5.96016">
        <ele>616.822998</ele>
        <time>2012-02-28T12:02:09Z</time>
      </trkpt>
      <trkpt lat="44.29549" lon="5.96043">
        <ele>618.2648926</ele>
        <time>2012-02-28T12:02:32Z</time>
      </trkpt>
      <trkpt lat="44.29598" lon="5.96071">
        <ele>619.2263184</ele>
        <time>2012-02-28T12:02:49Z</time>
      </trkpt>
      <trkpt lat="44.29646" lon="5.96097">
        <ele>621.1491699</ele>
        <time>2012-02-28T12:03:07Z</time>
      </trkpt>
      <trkpt lat="44.29694" lon="5.96123">
        <ele>624.032959</ele>
        <time>2012-02-28T12:03:26Z</time>
      </trkpt>
      <trkpt lat="44.29747" lon="5.96152">
        <ele>626.9169922</ele>
        <time>2012-02-28T12:03:48Z</time>
      </trkpt>
      <trkpt lat="44.29799" lon="5.96174">
        <ele>629.3200684</ele>
        <time>2012-02-28T12:04:09Z</time>
      </trkpt>
      <trkpt lat="44.29856" lon="5.96182">
        <ele>631.7233887</ele>
        <time>2012-02-28T12:04:30Z</time>
      </trkpt>
      <trkpt lat="44.29907" lon="5.96204">
        <ele>634.126709</ele>
        <time>2012-02-28T12:04:51Z</time>
      </trkpt>
      <trkpt lat="44.29953" lon="5.96194">
        <ele>637.0107422</ele>
        <time>2012-02-28T12:05:10Z</time>
      </trkpt>
      <trkpt lat="44.29983" lon="5.96171">
        <ele>639.8947754</ele>
        <time>2012-02-28T12:05:27Z</time>
      </trkpt>
      <trkpt lat="44.30015" lon="5.9616">
        <ele>642.2980957</ele>
        <time>2012-02-28T12:05:44Z</time>
      </trkpt>
      <trkpt lat="44.30048" lon="5.96155">
        <ele>645.6625977</ele>
        <time>2012-02-28T12:06:02Z</time>
      </trkpt>
      <trkpt lat="44.3008" lon="5.96144">
        <ele>648.065918</ele>
        <time>2012-02-28T12:06:22Z</time>
      </trkpt>
      <trkpt lat="44.30088" lon="5.96128">
        <ele>649.5078125</ele>
        <time>2012-02-28T12:06:30Z</time>
      </trkpt>
      <trkpt lat="44.30089" lon="5.96086">
        <ele>652.8725586</ele>
        <time>2012-02-28T12:06:48Z</time>
      </trkpt>
      <trkpt lat="44.30103" lon="5.96049">
        <ele>655.7565918</ele>
        <time>2012-02-28T12:07:06Z</time>
      </trkpt>
      <trkpt lat="44.3013" lon="5.96035">
        <ele>658.1599121</ele>
        <time>2012-02-28T12:07:22Z</time>
      </trkpt>
      <trkpt lat="44.30161" lon="5.9602">
        <ele>661.0437012</ele>
        <time>2012-02-28T12:07:41Z</time>
      </trkpt>
      <trkpt lat="44.30194" lon="5.96003">
        <ele>663.4470215</ele>
        <time>2012-02-28T12:08:01Z</time>
      </trkpt>
      <trkpt lat="44.30227" lon="5.95987">
        <ele>666.3308105</ele>
        <time>2012-02-28T12:08:21Z</time>
      </trkpt>
      <trkpt lat="44.30262" lon="5.95971">
        <ele>669.6958008</ele>
        <time>2012-02-28T12:08:42Z</time>
      </trkpt>
      <trkpt lat="44.30295" lon="5.9595">
        <ele>673.0603027</ele>
        <time>2012-02-28T12:09:03Z</time>
      </trkpt>
      <trkpt lat="44.30321" lon="5.95922">
        <ele>675.4633789</ele>
        <time>2012-02-28T12:09:23Z</time>
      </trkpt>
      <trkpt lat="44.30349" lon="5.95907">
        <ele>678.828125</ele>
        <time>2012-02-28T12:09:40Z</time>
      </trkpt>
      <trkpt lat="44.30372" lon="5.95879">
        <ele>681.7119141</ele>
        <time>2012-02-28T12:09:58Z</time>
      </trkpt>
      <trkpt lat="44.30389" lon="5.95843">
        <ele>684.5961914</ele>
        <time>2012-02-28T12:10:17Z</time>
      </trkpt>
      <trkpt lat="44.30418" lon="5.95841">
        <ele>687.4799805</ele>
        <time>2012-02-28T12:10:33Z</time>
      </trkpt>
      <trkpt lat="44.30442" lon="5.95821">
        <ele>690.3640137</ele>
        <time>2012-02-28T12:10:50Z</time>
      </trkpt>
      <trkpt lat="44.30465" lon="5.95791">
        <ele>693.7285156</ele>
        <time>2012-02-28T12:11:10Z</time>
      </trkpt>
      <trkpt lat="44.30491" lon="5.95752">
        <ele>696.6125488</ele>
        <time>2012-02-28T12:11:33Z</time>
      </trkpt>
      <trkpt lat="44.30506" lon="5.95715">
        <ele>699.4963379</ele>
        <time>2012-02-28T12:11:52Z</time>
      </trkpt>
      <trkpt lat="44.30525" lon="5.95677">
        <ele>702.3803711</ele>
        <time>2012-02-28T12:12:13Z</time>
      </trkpt>
      <trkpt lat="44.30541" lon="5.95639">
        <ele>705.7451172</ele>
        <time>2012-02-28T12:12:33Z</time>
      </trkpt>
      <trkpt lat="44.30544" lon="5.95629">
        <ele>706.7062988</ele>
        <time>2012-02-28T12:12:38Z</time>
      </trkpt>
      <trkpt lat="44.30556" lon="5.95599">
        <ele>709.590332</ele>
        <time>2012-02-28T12:12:54Z</time>
      </trkpt>
      <trkpt lat="44.3058" lon="5.95594">
        <ele>711.5129395</ele>
        <time>2012-02-28T12:13:10Z</time>
      </trkpt>
      <trkpt lat="44.30605" lon="5.95615">
        <ele>714.8774414</ele>
        <time>2012-02-28T12:13:27Z</time>
      </trkpt>
      <trkpt lat="44.30629" lon="5.95663">
        <ele>717.2810059</ele>
        <time>2012-02-28T12:13:51Z</time>
      </trkpt>
      <trkpt lat="44.30614" lon="5.95713">
        <ele>719.6843262</ele>
        <time>2012-02-28T12:14:10Z</time>
      </trkpt>
      <trkpt lat="44.30619" lon="5.95756">
        <ele>722.5681152</ele>
        <time>2012-02-28T12:14:28Z</time>
      </trkpt>
      <trkpt lat="44.30608" lon="5.95789">
        <ele>724.0100098</ele>
        <time>2012-02-28T12:14:42Z</time>
      </trkpt>
      <trkpt lat="44.3062" lon="5.95797">
        <ele>725.4519043</ele>
        <time>2012-02-28T12:14:52Z</time>
      </trkpt>
      <trkpt lat="44.30621" lon="5.95795">
        <ele>725.4519043</ele>
        <time>2012-02-28T12:14:53Z</time>
      </trkpt>
      <trkpt lat="44.30629" lon="5.95751">
        <ele>727.8552246</ele>
        <time>2012-02-28T12:15:12Z</time>
      </trkpt>
      <trkpt lat="44.30643" lon="5.95701">
        <ele>731.2199707</ele>
        <time>2012-02-28T12:15:32Z</time>
      </trkpt>
      <trkpt lat="44.30669" lon="5.95667">
        <ele>733.623291</ele>
        <time>2012-02-28T12:15:51Z</time>
      </trkpt>
      <trkpt lat="44.30669" lon="5.95617">
        <ele>736.0266113</ele>
        <time>2012-02-28T12:16:09Z</time>
      </trkpt>
      <trkpt lat="44.30683" lon="5.9559">
        <ele>737.9492188</ele>
        <time>2012-02-28T12:16:22Z</time>
      </trkpt>
      <trkpt lat="44.30716" lon="5.95589">
        <ele>738.4299316</ele>
        <time>2012-02-28T12:16:39Z</time>
      </trkpt>
      <trkpt lat="44.30734" lon="5.95617">
        <ele>736.987793</ele>
        <time>2012-02-28T12:16:47Z</time>
      </trkpt>
      <trkpt lat="44.30745" lon="5.95624">
        <ele>737.4685059</ele>
        <time>2012-02-28T12:16:50Z</time>
      </trkpt>
      <trkpt lat="44.30753" lon="5.95626">
        <ele>737.4685059</ele>
        <time>2012-02-28T12:16:52Z</time>
      </trkpt>
      <trkpt lat="44.30773" lon="5.95624">
        <ele>736.987793</ele>
        <time>2012-02-28T12:16:56Z</time>
      </trkpt>
      <trkpt lat="44.30806" lon="5.95609">
        <ele>735.0654297</ele>
        <time>2012-02-28T12:17:02Z</time>
      </trkpt>
      <trkpt lat="44.3083" lon="5.95606">
        <ele>733.623291</ele>
        <time>2012-02-28T12:17:06Z</time>
      </trkpt>
      <trkpt lat="44.3085" lon="5.95611">
        <ele>733.623291</ele>
        <time>2012-02-28T12:17:10Z</time>
      </trkpt>
      <trkpt lat="44.30859" lon="5.95614">
        <ele>732.6621094</ele>
        <time>2012-02-28T12:17:12Z</time>
      </trkpt>
      <trkpt lat="44.30873" lon="5.95631">
        <ele>733.1425781</ele>
        <time>2012-02-28T12:17:16Z</time>
      </trkpt>
      <trkpt lat="44.30889" lon="5.95659">
        <ele>732.1813965</ele>
        <time>2012-02-28T12:17:21Z</time>
      </trkpt>
      <trkpt lat="44.30938" lon="5.9565">
        <ele>729.2971191</ele>
        <time>2012-02-28T12:17:30Z</time>
      </trkpt>
      <trkpt lat="44.30938" lon="5.9565">
        <ele>729.2971191</ele>
        <time>2012-02-28T12:17:31Z</time>
      </trkpt>
      <trkpt lat="44.30911" lon="5.95656">
        <ele>728.3359375</ele>
        <time>2012-02-28T12:17:32Z</time>
      </trkpt>
      <trkpt lat="44.30892" lon="5.95609">
        <ele>725.9326172</ele>
        <time>2012-02-28T12:17:38Z</time>
      </trkpt>
      <trkpt lat="44.30886" lon="5.95592">
        <ele>724.9714355</ele>
        <time>2012-02-28T12:17:40Z</time>
      </trkpt>
      <trkpt lat="44.30858" lon="5.95559">
        <ele>723.0488281</ele>
        <time>2012-02-28T12:17:45Z</time>
      </trkpt>
      <trkpt lat="44.30844" lon="5.95549">
        <ele>721.6066895</ele>
        <time>2012-02-28T12:17:47Z</time>
      </trkpt>
      <trkpt lat="44.30816" lon="5.95529">
        <ele>719.6843262</ele>
        <time>2012-02-28T12:17:51Z</time>
      </trkpt>
      <trkpt lat="44.30803" lon="5.9552">
        <ele>716.800293</ele>
        <time>2012-02-28T12:17:53Z</time>
      </trkpt>
      <trkpt lat="44.30787" lon="5.95505">
        <ele>715.3581543</ele>
        <time>2012-02-28T12:17:56Z</time>
      </trkpt>
      <trkpt lat="44.30783" lon="5.95489">
        <ele>713.4355469</ele>
        <time>2012-02-28T12:17:58Z</time>
      </trkpt>
      <trkpt lat="44.30783" lon="5.95469">
        <ele>712.4741211</ele>
        <time>2012-02-28T12:18:00Z</time>
      </trkpt>
      <trkpt lat="44.30787" lon="5.95436">
        <ele>710.5515137</ele>
        <time>2012-02-28T12:18:03Z</time>
      </trkpt>
      <trkpt lat="44.30793" lon="5.95391">
        <ele>707.1870117</ele>
        <time>2012-02-28T12:18:07Z</time>
      </trkpt>
      <trkpt lat="44.30794" lon="5.95379">
        <ele>707.1870117</ele>
        <time>2012-02-28T12:18:08Z</time>
      </trkpt>
      <trkpt lat="44.30799" lon="5.95336">
        <ele>704.7836914</ele>
        <time>2012-02-28T12:18:12Z</time>
      </trkpt>
      <trkpt lat="44.308" lon="5.95325">
        <ele>704.3032227</ele>
        <time>2012-02-28T12:18:13Z</time>
      </trkpt>
      <trkpt lat="44.30801" lon="5.95307">
        <ele>702.861084</ele>
        <time>2012-02-28T12:18:15Z</time>
      </trkpt>
      <trkpt lat="44.30803" lon="5.95254">
        <ele>700.9384766</ele>
        <time>2012-02-28T12:18:24Z</time>
      </trkpt>
      <trkpt lat="44.30803" lon="5.95237">
        <ele>699.4963379</ele>
        <time>2012-02-28T12:18:26Z</time>
      </trkpt>
      <trkpt lat="44.308" lon="5.95206">
        <ele>697.5737305</ele>
        <time>2012-02-28T12:18:29Z</time>
      </trkpt>
      <trkpt lat="44.30799" lon="5.95151">
        <ele>694.2092285</ele>
        <time>2012-02-28T12:18:34Z</time>
      </trkpt>
      <trkpt lat="44.30799" lon="5.95139">
        <ele>694.2092285</ele>
        <time>2012-02-28T12:18:35Z</time>
      </trkpt>
      <trkpt lat="44.30794" lon="5.95105">
        <ele>692.767334</ele>
        <time>2012-02-28T12:18:38Z</time>
      </trkpt>
      <trkpt lat="44.30783" lon="5.95026">
        <ele>688.4414063</ele>
        <time>2012-02-28T12:18:44Z</time>
      </trkpt>
      <trkpt lat="44.30781" lon="5.95013">
        <ele>688.4414063</ele>
        <time>2012-02-28T12:18:45Z</time>
      </trkpt>
      <trkpt lat="44.30778" lon="5.9499">
        <ele>686.5187988</ele>
        <time>2012-02-28T12:18:47Z</time>
      </trkpt>
      <trkpt lat="44.30769" lon="5.9495">
        <ele>683.1538086</ele>
        <time>2012-02-28T12:18:51Z</time>
      </trkpt>
      <trkpt lat="44.30767" lon="5.94942">
        <ele>683.1538086</ele>
        <time>2012-02-28T12:18:52Z</time>
      </trkpt>
      <trkpt lat="44.30759" lon="5.94917">
        <ele>681.2314453</ele>
        <time>2012-02-28T12:18:55Z</time>
      </trkpt>
      <trkpt lat="44.30759" lon="5.94873">
        <ele>678.828125</ele>
        <time>2012-02-28T12:18:59Z</time>
      </trkpt>
      <trkpt lat="44.30762" lon="5.94816">
        <ele>674.5021973</ele>
        <time>2012-02-28T12:19:04Z</time>
      </trkpt>
      <trkpt lat="44.30763" lon="5.94794">
        <ele>673.5410156</ele>
        <time>2012-02-28T12:19:06Z</time>
      </trkpt>
      <trkpt lat="44.30764" lon="5.94775">
        <ele>672.5795898</ele>
        <time>2012-02-28T12:19:08Z</time>
      </trkpt>
      <trkpt lat="44.30764" lon="5.94764">
        <ele>671.1376953</ele>
        <time>2012-02-28T12:19:09Z</time>
      </trkpt>
      <trkpt lat="44.30764" lon="5.94731">
        <ele>667.7727051</ele>
        <time>2012-02-28T12:19:12Z</time>
      </trkpt>
      <trkpt lat="44.30761" lon="5.94721">
        <ele>667.7727051</ele>
        <time>2012-02-28T12:19:13Z</time>
      </trkpt>
      <trkpt lat="44.30759" lon="5.94711">
        <ele>666.8115234</ele>
        <time>2012-02-28T12:19:14Z</time>
      </trkpt>
      <trkpt lat="44.30757" lon="5.94686">
        <ele>665.3696289</ele>
        <time>2012-02-28T12:19:17Z</time>
      </trkpt>
      <trkpt lat="44.3076" lon="5.94672">
        <ele>664.4082031</ele>
        <time>2012-02-28T12:19:19Z</time>
      </trkpt>
      <trkpt lat="44.30768" lon="5.94659">
        <ele>662.005127</ele>
        <time>2012-02-28T12:19:21Z</time>
      </trkpt>
      <trkpt lat="44.30795" lon="5.94618">
        <ele>659.1210938</ele>
        <time>2012-02-28T12:19:27Z</time>
      </trkpt>
      <trkpt lat="44.30803" lon="5.946">
        <ele>658.1599121</ele>
        <time>2012-02-28T12:19:29Z</time>
      </trkpt>
      <trkpt lat="44.30816" lon="5.94557">
        <ele>655.7565918</ele>
        <time>2012-02-28T12:19:33Z</time>
      </trkpt>
      <trkpt lat="44.30823" lon="5.94529">
        <ele>652.8725586</ele>
        <time>2012-02-28T12:19:36Z</time>
      </trkpt>
      <trkpt lat="44.30825" lon="5.9452">
        <ele>652.3918457</ele>
        <time>2012-02-28T12:19:37Z</time>
      </trkpt>
      <trkpt lat="44.30822" lon="5.94494">
        <ele>650.949707</ele>
        <time>2012-02-28T12:19:40Z</time>
      </trkpt>
      <trkpt lat="44.30812" lon="5.94475">
        <ele>648.5463867</ele>
        <time>2012-02-28T12:19:43Z</time>
      </trkpt>
      <trkpt lat="44.30801" lon="5.94452">
        <ele>646.1433105</ele>
        <time>2012-02-28T12:19:47Z</time>
      </trkpt>
      <trkpt lat="44.30812" lon="5.94434">
        <ele>644.7011719</ele>
        <time>2012-02-28T12:19:50Z</time>
      </trkpt>
      <trkpt lat="44.30821" lon="5.94424">
        <ele>643.7399902</ele>
        <time>2012-02-28T12:19:52Z</time>
      </trkpt>
      <trkpt lat="44.30841" lon="5.9439">
        <ele>640.855957</ele>
        <time>2012-02-28T12:19:57Z</time>
      </trkpt>
      <trkpt lat="44.30865" lon="5.94337">
        <ele>637.972168</ele>
        <time>2012-02-28T12:20:03Z</time>
      </trkpt>
      <trkpt lat="44.30878" lon="5.94307">
        <ele>635.5686035</ele>
        <time>2012-02-28T12:20:06Z</time>
      </trkpt>
      <trkpt lat="44.30885" lon="5.94289">
        <ele>633.6459961</ele>
        <time>2012-02-28T12:20:08Z</time>
      </trkpt>
      <trkpt lat="44.30901" lon="5.94256">
        <ele>629.8007813</ele>
        <time>2012-02-28T12:20:12Z</time>
      </trkpt>
      <trkpt lat="44.30905" lon="5.94247">
        <ele>629.8007813</ele>
        <time>2012-02-28T12:20:13Z</time>
      </trkpt>
      <trkpt lat="44.30929" lon="5.94191">
        <ele>626.4362793</ele>
        <time>2012-02-28T12:20:19Z</time>
      </trkpt>
      <trkpt lat="44.30932" lon="5.9418">
        <ele>626.4362793</ele>
        <time>2012-02-28T12:20:20Z</time>
      </trkpt>
      <trkpt lat="44.30948" lon="5.94134">
        <ele>623.5524902</ele>
        <time>2012-02-28T12:20:26Z</time>
      </trkpt>
      <trkpt lat="44.3095" lon="5.94127">
        <ele>623.5524902</ele>
        <time>2012-02-28T12:20:27Z</time>
      </trkpt>
      <trkpt lat="44.30971" lon="5.94038">
        <ele>620.1877441</ele>
        <time>2012-02-28T12:20:37Z</time>
      </trkpt>
      <trkpt lat="44.30972" lon="5.93998">
        <ele>618.7456055</ele>
        <time>2012-02-28T12:20:41Z</time>
      </trkpt>
      <trkpt lat="44.30967" lon="5.93925">
        <ele>615.3811035</ele>
        <time>2012-02-28T12:20:49Z</time>
      </trkpt>
      <trkpt lat="44.30967" lon="5.93917">
        <ele>615.3811035</ele>
        <time>2012-02-28T12:20:50Z</time>
      </trkpt>
      <trkpt lat="44.30941" lon="5.93876">
        <ele>612.0166016</ele>
        <time>2012-02-28T12:20:57Z</time>
      </trkpt>
      <trkpt lat="44.30927" lon="5.93869">
        <ele>610.5744629</ele>
        <time>2012-02-28T12:20:59Z</time>
      </trkpt>
      <trkpt lat="44.30921" lon="5.93866">
        <ele>609.6132813</ele>
        <time>2012-02-28T12:21:00Z</time>
      </trkpt>
      <trkpt lat="44.30889" lon="5.93863">
        <ele>606.729248</ele>
        <time>2012-02-28T12:21:04Z</time>
      </trkpt>
      <trkpt lat="44.30872" lon="5.93864">
        <ele>605.2873535</ele>
        <time>2012-02-28T12:21:06Z</time>
      </trkpt>
      <trkpt lat="44.30854" lon="5.93865">
        <ele>603.364502</ele>
        <time>2012-02-28T12:21:08Z</time>
      </trkpt>
      <trkpt lat="44.30837" lon="5.93866">
        <ele>600</ele>
        <time>2012-02-28T12:21:10Z</time>
      </trkpt>
      <trkpt lat="44.30829" lon="5.93867">
        <ele>600</ele>
        <time>2012-02-28T12:21:11Z</time>
      </trkpt>
      <trkpt lat="44.30813" lon="5.93867">
        <ele>598.5578613</ele>
        <time>2012-02-28T12:21:13Z</time>
      </trkpt>
      <trkpt lat="44.30795" lon="5.93866">
        <ele>596.635498</ele>
        <time>2012-02-28T12:21:15Z</time>
      </trkpt>
      <trkpt lat="44.30778" lon="5.93863">
        <ele>592.7902832</ele>
        <time>2012-02-28T12:21:17Z</time>
      </trkpt>
      <trkpt lat="44.3077" lon="5.93861">
        <ele>592.7902832</ele>
        <time>2012-02-28T12:21:18Z</time>
      </trkpt>
      <trkpt lat="44.30762" lon="5.93858">
        <ele>591.3481445</ele>
        <time>2012-02-28T12:21:19Z</time>
      </trkpt>
      <trkpt lat="44.30741" lon="5.93843">
        <ele>589.4255371</ele>
        <time>2012-02-28T12:21:22Z</time>
      </trkpt>
      <trkpt lat="44.30728" lon="5.93828">
        <ele>587.5026855</ele>
        <time>2012-02-28T12:21:24Z</time>
      </trkpt>
      <trkpt lat="44.30715" lon="5.93813">
        <ele>586.060791</ele>
        <time>2012-02-28T12:21:26Z</time>
      </trkpt>
      <trkpt lat="44.30697" lon="5.93793">
        <ele>584.1381836</ele>
        <time>2012-02-28T12:21:29Z</time>
      </trkpt>
      <trkpt lat="44.30685" lon="5.93781">
        <ele>582.6962891</ele>
        <time>2012-02-28T12:21:31Z</time>
      </trkpt>
      <trkpt lat="44.30668" lon="5.93763">
        <ele>581.2543945</ele>
        <time>2012-02-28T12:21:34Z</time>
      </trkpt>
      <trkpt lat="44.30655" lon="5.93751">
        <ele>579.8122559</ele>
        <time>2012-02-28T12:21:36Z</time>
      </trkpt>
      <trkpt lat="44.3064" lon="5.93742">
        <ele>578.8510742</ele>
        <time>2012-02-28T12:21:38Z</time>
      </trkpt>
      <trkpt lat="44.30618" lon="5.93734">
        <ele>575.967041</ele>
        <time>2012-02-28T12:21:41Z</time>
      </trkpt>
      <trkpt lat="44.30604" lon="5.93736">
        <ele>575.0058594</ele>
        <time>2012-02-28T12:21:43Z</time>
      </trkpt>
      <trkpt lat="44.30572" lon="5.93732">
        <ele>571.6408691</ele>
        <time>2012-02-28T12:21:48Z</time>
      </trkpt>
      <trkpt lat="44.30566" lon="5.93726">
        <ele>570.6796875</ele>
        <time>2012-02-28T12:21:49Z</time>
      </trkpt>
      <trkpt lat="44.30547" lon="5.93706">
        <ele>569.237793</ele>
        <time>2012-02-28T12:21:52Z</time>
      </trkpt>
      <trkpt lat="44.3053" lon="5.93689">
        <ele>566.8344727</ele>
        <time>2012-02-28T12:21:55Z</time>
      </trkpt>
      <trkpt lat="44.30519" lon="5.93677">
        <ele>565.873291</ele>
        <time>2012-02-28T12:21:57Z</time>
      </trkpt>
      <trkpt lat="44.30512" lon="5.93664">
        <ele>564.4311523</ele>
        <time>2012-02-28T12:21:59Z</time>
      </trkpt>
      <trkpt lat="44.30512" lon="5.93642">
        <ele>562.0280762</ele>
        <time>2012-02-28T12:22:02Z</time>
      </trkpt>
      <trkpt lat="44.30514" lon="5.9363">
        <ele>561.0666504</ele>
        <time>2012-02-28T12:22:04Z</time>
      </trkpt>
      <trkpt lat="44.30498" lon="5.93625">
        <ele>557.7021484</ele>
        <time>2012-02-28T12:22:09Z</time>
      </trkpt>
      <trkpt lat="44.30488" lon="5.93633">
        <ele>557.2214355</ele>
        <time>2012-02-28T12:22:11Z</time>
      </trkpt>
      <trkpt lat="44.30483" lon="5.93635">
        <ele>556.7407227</ele>
        <time>2012-02-28T12:22:12Z</time>
      </trkpt>
      <trkpt lat="44.30453" lon="5.93626">
        <ele>553.3759766</ele>
        <time>2012-02-28T12:22:17Z</time>
      </trkpt>
      <trkpt lat="44.30448" lon="5.93619">
        <ele>553.3759766</ele>
        <time>2012-02-28T12:22:18Z</time>
      </trkpt>
      <trkpt lat="44.3041" lon="5.93565">
        <ele>549.0500488</ele>
        <time>2012-02-28T12:22:24Z</time>
      </trkpt>
      <trkpt lat="44.30403" lon="5.93554">
        <ele>549.0500488</ele>
        <time>2012-02-28T12:22:25Z</time>
      </trkpt>
      <trkpt lat="44.3039" lon="5.93535">
        <ele>547.6081543</ele>
        <time>2012-02-28T12:22:27Z</time>
      </trkpt>
      <trkpt lat="44.30375" lon="5.93515">
        <ele>545.6855469</ele>
        <time>2012-02-28T12:22:29Z</time>
      </trkpt>
      <trkpt lat="44.30354" lon="5.93483">
        <ele>542.8015137</ele>
        <time>2012-02-28T12:22:32Z</time>
      </trkpt>
      <trkpt lat="44.30339" lon="5.93462">
        <ele>541.3594971</ele>
        <time>2012-02-28T12:22:34Z</time>
      </trkpt>
      <trkpt lat="44.30325" lon="5.93442">
        <ele>539.9176025</ele>
        <time>2012-02-28T12:22:36Z</time>
      </trkpt>
      <trkpt lat="44.30305" lon="5.93413">
        <ele>537.5142822</ele>
        <time>2012-02-28T12:22:39Z</time>
      </trkpt>
      <trkpt lat="44.30293" lon="5.93395">
        <ele>535.1109619</ele>
        <time>2012-02-28T12:22:41Z</time>
      </trkpt>
      <trkpt lat="44.30271" lon="5.93362">
        <ele>534.1496582</ele>
        <time>2012-02-28T12:22:46Z</time>
      </trkpt>
      <trkpt lat="44.30248" lon="5.93324">
        <ele>532.2270508</ele>
        <time>2012-02-28T12:22:56Z</time>
      </trkpt>
      <trkpt lat="44.30255" lon="5.93315">
        <ele>532.2270508</ele>
        <time>2012-02-28T12:23:00Z</time>
      </trkpt>
      <trkpt lat="44.30318" lon="5.93294">
        <ele>532.2270508</ele>
        <time>2012-02-28T12:23:18Z</time>
      </trkpt>
      <trkpt lat="44.3043" lon="5.93251">
        <ele>532.7077637</ele>
        <time>2012-02-28T12:23:43Z</time>
      </trkpt>
      <trkpt lat="44.30541" lon="5.93207">
        <ele>532.7077637</ele>
        <time>2012-02-28T12:24:06Z</time>
      </trkpt>
      <trkpt lat="44.30653" lon="5.93154">
        <ele>533.1883545</ele>
        <time>2012-02-28T12:24:29Z</time>
      </trkpt>
      <trkpt lat="44.3078" lon="5.93083">
        <ele>531.7463379</ele>
        <time>2012-02-28T12:24:54Z</time>
      </trkpt>
      <trkpt lat="44.30898" lon="5.9302">
        <ele>531.2657471</ele>
        <time>2012-02-28T12:25:18Z</time>
      </trkpt>
      <trkpt lat="44.3097" lon="5.92984">
        <ele>533.6689453</ele>
        <time>2012-02-28T12:25:36Z</time>
      </trkpt>
      <trkpt lat="44.31019" lon="5.92953">
        <ele>536.0723877</ele>
        <time>2012-02-28T12:25:54Z</time>
      </trkpt>
      <trkpt lat="44.31067" lon="5.92924">
        <ele>536.5531006</ele>
        <time>2012-02-28T12:26:13Z</time>
      </trkpt>
      <trkpt lat="44.31105" lon="5.92904">
        <ele>536.0723877</ele>
        <time>2012-02-28T12:26:23Z</time>
      </trkpt>
      <trkpt lat="44.3116" lon="5.92927">
        <ele>534.1496582</ele>
        <time>2012-02-28T12:26:33Z</time>
      </trkpt>
      <trkpt lat="44.31174" lon="5.92943">
        <ele>533.1883545</ele>
        <time>2012-02-28T12:26:36Z</time>
      </trkpt>
      <trkpt lat="44.31227" lon="5.93005">
        <ele>532.2270508</ele>
        <time>2012-02-28T12:26:49Z</time>
      </trkpt>
      <trkpt lat="44.31256" lon="5.93006">
        <ele>532.2270508</ele>
        <time>2012-02-28T12:26:57Z</time>
      </trkpt>
      <trkpt lat="44.31275" lon="5.92953">
        <ele>533.6689453</ele>
        <time>2012-02-28T12:27:10Z</time>
      </trkpt>
      <trkpt lat="44.31247" lon="5.92904">
        <ele>535.5915527</ele>
        <time>2012-02-28T12:27:25Z</time>
      </trkpt>
      <trkpt lat="44.31242" lon="5.92852">
        <ele>537.0336914</ele>
        <time>2012-02-28T12:27:39Z</time>
      </trkpt>
      <trkpt lat="44.31269" lon="5.92783">
        <ele>537.5142822</ele>
        <time>2012-02-28T12:27:57Z</time>
      </trkpt>
      <trkpt lat="44.31313" lon="5.92762">
        <ele>538.9562988</ele>
        <time>2012-02-28T12:28:12Z</time>
      </trkpt>
      <trkpt lat="44.31373" lon="5.92721">
        <ele>539.4368896</ele>
        <time>2012-02-28T12:28:32Z</time>
      </trkpt>
      <trkpt lat="44.3143" lon="5.9269">
        <ele>540.3983154</ele>
        <time>2012-02-28T12:28:50Z</time>
      </trkpt>
      <trkpt lat="44.31488" lon="5.92646">
        <ele>541.84021</ele>
        <time>2012-02-28T12:29:09Z</time>
      </trkpt>
      <trkpt lat="44.31527" lon="5.92623">
        <ele>542.3209229</ele>
        <time>2012-02-28T12:29:21Z</time>
      </trkpt>
      <trkpt lat="44.31568" lon="5.92579">
        <ele>544.2436523</ele>
        <time>2012-02-28T12:29:36Z</time>
      </trkpt>
      <trkpt lat="44.31605" lon="5.92514">
        <ele>546.1662598</ele>
        <time>2012-02-28T12:29:57Z</time>
      </trkpt>
      <trkpt lat="44.31636" lon="5.92464">
        <ele>548.5693359</ele>
        <time>2012-02-28T12:30:14Z</time>
      </trkpt>
      <trkpt lat="44.31667" lon="5.92408">
        <ele>550.4921875</ele>
        <time>2012-02-28T12:30:33Z</time>
      </trkpt>
      <trkpt lat="44.31702" lon="5.9237">
        <ele>553.3759766</ele>
        <time>2012-02-28T12:30:50Z</time>
      </trkpt>
      <trkpt lat="44.31747" lon="5.92345">
        <ele>554.8178711</ele>
        <time>2012-02-28T12:31:08Z</time>
      </trkpt>
      <trkpt lat="44.31788" lon="5.92386">
        <ele>556.2600098</ele>
        <time>2012-02-28T12:31:25Z</time>
      </trkpt>
      <trkpt lat="44.31823" lon="5.92453">
        <ele>558.1828613</ele>
        <time>2012-02-28T12:31:47Z</time>
      </trkpt>
      <trkpt lat="44.31859" lon="5.9247">
        <ele>558.1828613</ele>
        <time>2012-02-28T12:32:01Z</time>
      </trkpt>
      <trkpt lat="44.31874" lon="5.92439">
        <ele>560.1052246</ele>
        <time>2012-02-28T12:32:12Z</time>
      </trkpt>
      <trkpt lat="44.3186" lon="5.92393">
        <ele>562.0280762</ele>
        <time>2012-02-28T12:32:25Z</time>
      </trkpt>
      <trkpt lat="44.31849" lon="5.92349">
        <ele>564.4311523</ele>
        <time>2012-02-28T12:32:40Z</time>
      </trkpt>
      <trkpt lat="44.31846" lon="5.9234">
        <ele>565.873291</ele>
        <time>2012-02-28T12:32:43Z</time>
      </trkpt>
      <trkpt lat="44.31828" lon="5.92289">
        <ele>568.7570801</ele>
        <time>2012-02-28T12:33:02Z</time>
      </trkpt>
      <trkpt lat="44.31826" lon="5.92283">
        <ele>569.7185059</ele>
        <time>2012-02-28T12:33:04Z</time>
      </trkpt>
      <trkpt lat="44.31822" lon="5.92234">
        <ele>572.6025391</ele>
        <time>2012-02-28T12:33:21Z</time>
      </trkpt>
      <trkpt lat="44.31838" lon="5.92176">
        <ele>575.4863281</ele>
        <time>2012-02-28T12:33:42Z</time>
      </trkpt>
      <trkpt lat="44.31872" lon="5.9215">
        <ele>577.8896484</ele>
        <time>2012-02-28T12:33:58Z</time>
      </trkpt>
      <trkpt lat="44.31909" lon="5.92125">
        <ele>579.331543</ele>
        <time>2012-02-28T12:34:15Z</time>
      </trkpt>
      <trkpt lat="44.31974" lon="5.92079">
        <ele>579.8122559</ele>
        <time>2012-02-28T12:34:36Z</time>
      </trkpt>
      <trkpt lat="44.3202" lon="5.92052">
        <ele>577.8896484</ele>
        <time>2012-02-28T12:34:52Z</time>
      </trkpt>
      <trkpt lat="44.3203" lon="5.92053">
        <ele>579.331543</ele>
        <time>2012-02-28T12:34:55Z</time>
      </trkpt>
      <trkpt lat="44.3211" lon="5.92067">
        <ele>578.8510742</ele>
        <time>2012-02-28T12:35:14Z</time>
      </trkpt>
      <trkpt lat="44.32132" lon="5.92071">
        <ele>579.331543</ele>
        <time>2012-02-28T12:35:19Z</time>
      </trkpt>
      <trkpt lat="44.32212" lon="5.92085">
        <ele>579.8122559</ele>
        <time>2012-02-28T12:35:38Z</time>
      </trkpt>
      <trkpt lat="44.32317" lon="5.92103">
        <ele>579.331543</ele>
        <time>2012-02-28T12:36:02Z</time>
      </trkpt>
      <trkpt lat="44.32351" lon="5.92103">
        <ele>581.2543945</ele>
        <time>2012-02-28T12:36:09Z</time>
      </trkpt>
      <trkpt lat="44.32461" lon="5.92103">
        <ele>581.2543945</ele>
        <time>2012-02-28T12:36:32Z</time>
      </trkpt>
      <trkpt lat="44.32574" lon="5.92101">
        <ele>583.1767578</ele>
        <time>2012-02-28T12:36:56Z</time>
      </trkpt>
      <trkpt lat="44.32625" lon="5.92101">
        <ele>583.6574707</ele>
        <time>2012-02-28T12:37:07Z</time>
      </trkpt>
      <trkpt lat="44.32695" lon="5.92101">
        <ele>584.6188965</ele>
        <time>2012-02-28T12:37:24Z</time>
      </trkpt>
      <trkpt lat="44.3276" lon="5.92103">
        <ele>583.1767578</ele>
        <time>2012-02-28T12:37:38Z</time>
      </trkpt>
      <trkpt lat="44.32863" lon="5.92105">
        <ele>581.2543945</ele>
        <time>2012-02-28T12:37:56Z</time>
      </trkpt>
      <trkpt lat="44.32952" lon="5.92138">
        <ele>579.8122559</ele>
        <time>2012-02-28T12:38:11Z</time>
      </trkpt>
      <trkpt lat="44.33051" lon="5.92222">
        <ele>579.331543</ele>
        <time>2012-02-28T12:38:30Z</time>
      </trkpt>
      <trkpt lat="44.33182" lon="5.92316">
        <ele>578.8510742</ele>
        <time>2012-02-28T12:38:53Z</time>
      </trkpt>
      <trkpt lat="44.33275" lon="5.92378">
        <ele>578.8510742</ele>
        <time>2012-02-28T12:39:11Z</time>
      </trkpt>
      <trkpt lat="44.33401" lon="5.92459">
        <ele>578.3703613</ele>
        <time>2012-02-28T12:39:34Z</time>
      </trkpt>
      <trkpt lat="44.33484" lon="5.92514">
        <ele>579.8122559</ele>
        <time>2012-02-28T12:39:52Z</time>
      </trkpt>
      <trkpt lat="44.33495" lon="5.92527">
        <ele>580.2929688</ele>
        <time>2012-02-28T12:39:55Z</time>
      </trkpt>
      <trkpt lat="44.33581" lon="5.9265">
        <ele>581.7348633</ele>
        <time>2012-02-28T12:40:21Z</time>
      </trkpt>
      <trkpt lat="44.33637" lon="5.92737">
        <ele>582.2155762</ele>
        <time>2012-02-28T12:40:41Z</time>
      </trkpt>
      <trkpt lat="44.33706" lon="5.92858">
        <ele>581.7348633</ele>
        <time>2012-02-28T12:41:02Z</time>
      </trkpt>
      <trkpt lat="44.33783" lon="5.9294">
        <ele>582.2155762</ele>
        <time>2012-02-28T12:41:19Z</time>
      </trkpt>
      <trkpt lat="44.33884" lon="5.93043">
        <ele>582.6962891</ele>
        <time>2012-02-28T12:41:41Z</time>
      </trkpt>
      <trkpt lat="44.33894" lon="5.9305">
        <ele>582.6962891</ele>
        <time>2012-02-28T12:41:43Z</time>
      </trkpt>
      <trkpt lat="44.34005" lon="5.93092">
        <ele>581.2543945</ele>
        <time>2012-02-28T12:42:03Z</time>
      </trkpt>
      <trkpt lat="44.34141" lon="5.93142">
        <ele>580.2929688</ele>
        <time>2012-02-28T12:42:27Z</time>
      </trkpt>
      <trkpt lat="44.34209" lon="5.93167">
        <ele>579.8122559</ele>
        <time>2012-02-28T12:42:39Z</time>
      </trkpt>
      <trkpt lat="44.34313" lon="5.93207">
        <ele>579.8122559</ele>
        <time>2012-02-28T12:42:58Z</time>
      </trkpt>
      <trkpt lat="44.34403" lon="5.93242">
        <ele>577.8896484</ele>
        <time>2012-02-28T12:43:14Z</time>
      </trkpt>
      <trkpt lat="44.3443" lon="5.93278">
        <ele>577.4091797</ele>
        <time>2012-02-28T12:43:20Z</time>
      </trkpt>
      <trkpt lat="44.34447" lon="5.93345">
        <ele>575.0058594</ele>
        <time>2012-02-28T12:43:27Z</time>
      </trkpt>
      <trkpt lat="44.34447" lon="5.9338">
        <ele>573.5639648</ele>
        <time>2012-02-28T12:43:31Z</time>
      </trkpt>
      <trkpt lat="44.3444" lon="5.93408">
        <ele>572.1218262</ele>
        <time>2012-02-28T12:43:35Z</time>
      </trkpt>
      <trkpt lat="44.34413" lon="5.93468">
        <ele>569.7185059</ele>
        <time>2012-02-28T12:43:43Z</time>
      </trkpt>
      <trkpt lat="44.34414" lon="5.93508">
        <ele>567.7956543</ele>
        <time>2012-02-28T12:43:50Z</time>
      </trkpt>
      <trkpt lat="44.34425" lon="5.93511">
        <ele>567.7956543</ele>
        <time>2012-02-28T12:43:52Z</time>
      </trkpt>
      <trkpt lat="44.34473" lon="5.93526">
        <ele>567.3151855</ele>
        <time>2012-02-28T12:44:01Z</time>
      </trkpt>
      <trkpt lat="44.3449" lon="5.93525">
        <ele>568.2763672</ele>
        <time>2012-02-28T12:44:05Z</time>
      </trkpt>
      <trkpt lat="44.34533" lon="5.9349">
        <ele>570.6796875</ele>
        <time>2012-02-28T12:44:21Z</time>
      </trkpt>
      <trkpt lat="44.3459" lon="5.93458">
        <ele>573.083252</ele>
        <time>2012-02-28T12:44:40Z</time>
      </trkpt>
      <trkpt lat="44.34639" lon="5.93451">
        <ele>575.0058594</ele>
        <time>2012-02-28T12:44:56Z</time>
      </trkpt>
      <trkpt lat="44.34686" lon="5.93501">
        <ele>575.967041</ele>
        <time>2012-02-28T12:45:13Z</time>
      </trkpt>
      <trkpt lat="44.34742" lon="5.93564">
        <ele>577.4091797</ele>
        <time>2012-02-28T12:45:34Z</time>
      </trkpt>
      <trkpt lat="44.34805" lon="5.93633">
        <ele>578.8510742</ele>
        <time>2012-02-28T12:45:57Z</time>
      </trkpt>
      <trkpt lat="44.34832" lon="5.93657">
        <ele>578.8510742</ele>
        <time>2012-02-28T12:46:04Z</time>
      </trkpt>
      <trkpt lat="44.34922" lon="5.9372">
        <ele>576.4477539</ele>
        <time>2012-02-28T12:46:21Z</time>
      </trkpt>
      <trkpt lat="44.34937" lon="5.9373">
        <ele>577.4091797</ele>
        <time>2012-02-28T12:46:24Z</time>
      </trkpt>
      <trkpt lat="44.34973" lon="5.93752">
        <ele>580.2929688</ele>
        <time>2012-02-28T12:46:37Z</time>
      </trkpt>
      <trkpt lat="44.35032" lon="5.9378">
        <ele>580.7736816</ele>
        <time>2012-02-28T12:46:56Z</time>
      </trkpt>
      <trkpt lat="44.35086" lon="5.93809">
        <ele>579.8122559</ele>
        <time>2012-02-28T12:47:06Z</time>
      </trkpt>
      <trkpt lat="44.35186" lon="5.93879">
        <ele>580.7736816</ele>
        <time>2012-02-28T12:47:26Z</time>
      </trkpt>
      <trkpt lat="44.35202" lon="5.9389">
        <ele>580.7736816</ele>
        <time>2012-02-28T12:47:30Z</time>
      </trkpt>
      <trkpt lat="44.35296" lon="5.93948">
        <ele>578.8510742</ele>
        <time>2012-02-28T12:47:47Z</time>
      </trkpt>
      <trkpt lat="44.35404" lon="5.94011">
        <ele>576.9284668</ele>
        <time>2012-02-28T12:48:05Z</time>
      </trkpt>
      <trkpt lat="44.35418" lon="5.94023">
        <ele>575.4863281</ele>
        <time>2012-02-28T12:48:07Z</time>
      </trkpt>
      <trkpt lat="44.35432" lon="5.94037">
        <ele>575.4863281</ele>
        <time>2012-02-28T12:48:09Z</time>
      </trkpt>
      <trkpt lat="44.35472" lon="5.94049">
        <ele>574.5251465</ele>
        <time>2012-02-28T12:48:14Z</time>
      </trkpt>
      <trkpt lat="44.35497" lon="5.94046">
        <ele>575.967041</ele>
        <time>2012-02-28T12:48:18Z</time>
      </trkpt>
      <trkpt lat="44.35515" lon="5.94043">
        <ele>576.9284668</ele>
        <time>2012-02-28T12:48:22Z</time>
      </trkpt>
      <trkpt lat="44.35568" lon="5.9406">
        <ele>579.331543</ele>
        <time>2012-02-28T12:48:37Z</time>
      </trkpt>
      <trkpt lat="44.35638" lon="5.94099">
        <ele>579.8122559</ele>
        <time>2012-02-28T12:48:54Z</time>
      </trkpt>
      <trkpt lat="44.35678" lon="5.94122">
        <ele>579.331543</ele>
        <time>2012-02-28T12:49:03Z</time>
      </trkpt>
      <trkpt lat="44.35703" lon="5.94135">
        <ele>580.2929688</ele>
        <time>2012-02-28T12:49:09Z</time>
      </trkpt>
      <trkpt lat="44.35783" lon="5.94187">
        <ele>579.8122559</ele>
        <time>2012-02-28T12:49:28Z</time>
      </trkpt>
      <trkpt lat="44.3586" lon="5.94269">
        <ele>577.4091797</ele>
        <time>2012-02-28T12:49:44Z</time>
      </trkpt>
      <trkpt lat="44.35888" lon="5.94316">
        <ele>576.4477539</ele>
        <time>2012-02-28T12:49:50Z</time>
      </trkpt>
      <trkpt lat="44.35927" lon="5.94348">
        <ele>575.4863281</ele>
        <time>2012-02-28T12:49:56Z</time>
      </trkpt>
      <trkpt lat="44.35948" lon="5.94379">
        <ele>575.967041</ele>
        <time>2012-02-28T12:50:01Z</time>
      </trkpt>
      <trkpt lat="44.35968" lon="5.94415">
        <ele>575.0058594</ele>
        <time>2012-02-28T12:50:06Z</time>
      </trkpt>
      <trkpt lat="44.3599" lon="5.94437">
        <ele>574.5251465</ele>
        <time>2012-02-28T12:50:10Z</time>
      </trkpt>
      <trkpt lat="44.36029" lon="5.94454">
        <ele>575.0058594</ele>
        <time>2012-02-28T12:50:17Z</time>
      </trkpt>
      <trkpt lat="44.36119" lon="5.94477">
        <ele>570.6796875</ele>
        <time>2012-02-28T12:50:32Z</time>
      </trkpt>
      <trkpt lat="44.36127" lon="5.94479">
        <ele>570.1989746</ele>
        <time>2012-02-28T12:50:33Z</time>
      </trkpt>
      <trkpt lat="44.3615" lon="5.94486">
        <ele>567.7956543</ele>
        <time>2012-02-28T12:50:36Z</time>
      </trkpt>
      <trkpt lat="44.36173" lon="5.94501">
        <ele>564.4311523</ele>
        <time>2012-02-28T12:50:39Z</time>
      </trkpt>
      <trkpt lat="44.36179" lon="5.9451">
        <ele>564.4311523</ele>
        <time>2012-02-28T12:50:40Z</time>
      </trkpt>
      <trkpt lat="44.36185" lon="5.9452">
        <ele>563.4699707</ele>
        <time>2012-02-28T12:50:41Z</time>
      </trkpt>
      <trkpt lat="44.36205" lon="5.94545">
        <ele>561.5473633</ele>
        <time>2012-02-28T12:50:44Z</time>
      </trkpt>
      <trkpt lat="44.36238" lon="5.94551">
        <ele>560.5859375</ele>
        <time>2012-02-28T12:50:48Z</time>
      </trkpt>
      <trkpt lat="44.36277" lon="5.94549">
        <ele>562.5085449</ele>
        <time>2012-02-28T12:50:54Z</time>
      </trkpt>
      <trkpt lat="44.36315" lon="5.94563">
        <ele>565.3925781</ele>
        <time>2012-02-28T12:51:07Z</time>
      </trkpt>
      <trkpt lat="44.36341" lon="5.94578">
        <ele>568.7570801</ele>
        <time>2012-02-28T12:51:20Z</time>
      </trkpt>
      <trkpt lat="44.36357" lon="5.94584">
        <ele>571.1604004</ele>
        <time>2012-02-28T12:51:28Z</time>
      </trkpt>
      <trkpt lat="44.364" lon="5.94622">
        <ele>570.6796875</ele>
        <time>2012-02-28T12:51:44Z</time>
      </trkpt>
      <trkpt lat="44.36454" lon="5.94666">
        <ele>571.6408691</ele>
        <time>2012-02-28T12:52:03Z</time>
      </trkpt>
      <trkpt lat="44.36467" lon="5.94673">
        <ele>570.6796875</ele>
        <time>2012-02-28T12:52:07Z</time>
      </trkpt>
      <trkpt lat="44.36522" lon="5.94682">
        <ele>568.2763672</ele>
        <time>2012-02-28T12:52:17Z</time>
      </trkpt>
      <trkpt lat="44.36568" lon="5.94673">
        <ele>565.873291</ele>
        <time>2012-02-28T12:52:23Z</time>
      </trkpt>
      <trkpt lat="44.36611" lon="5.94677">
        <ele>564.4311523</ele>
        <time>2012-02-28T12:52:28Z</time>
      </trkpt>
      <trkpt lat="44.36641" lon="5.94687">
        <ele>562.0280762</ele>
        <time>2012-02-28T12:52:31Z</time>
      </trkpt>
      <trkpt lat="44.36661" lon="5.94696">
        <ele>560.5859375</ele>
        <time>2012-02-28T12:52:33Z</time>
      </trkpt>
      <trkpt lat="44.367" lon="5.94713">
        <ele>559.144043</ele>
        <time>2012-02-28T12:52:37Z</time>
      </trkpt>
      <trkpt lat="44.36752" lon="5.94716">
        <ele>558.6633301</ele>
        <time>2012-02-28T12:52:43Z</time>
      </trkpt>
      <trkpt lat="44.36767" lon="5.94714">
        <ele>559.6247559</ele>
        <time>2012-02-28T12:52:45Z</time>
      </trkpt>
      <trkpt lat="44.36856" lon="5.94707">
        <ele>557.7021484</ele>
        <time>2012-02-28T12:53:00Z</time>
      </trkpt>
      <trkpt lat="44.36889" lon="5.94704">
        <ele>556.7407227</ele>
        <time>2012-02-28T12:53:05Z</time>
      </trkpt>
      <trkpt lat="44.36917" lon="5.9469">
        <ele>557.2214355</ele>
        <time>2012-02-28T12:53:10Z</time>
      </trkpt>
      <trkpt lat="44.36939" lon="5.94685">
        <ele>558.6633301</ele>
        <time>2012-02-28T12:53:15Z</time>
      </trkpt>
      <trkpt lat="44.36983" lon="5.94702">
        <ele>561.5473633</ele>
        <time>2012-02-28T12:53:30Z</time>
      </trkpt>
      <trkpt lat="44.37018" lon="5.94728">
        <ele>563.4699707</ele>
        <time>2012-02-28T12:53:47Z</time>
      </trkpt>
      <trkpt lat="44.37057" lon="5.94765">
        <ele>565.3925781</ele>
        <time>2012-02-28T12:54:05Z</time>
      </trkpt>
      <trkpt lat="44.37091" lon="5.94802">
        <ele>568.2763672</ele>
        <time>2012-02-28T12:54:21Z</time>
      </trkpt>
      <trkpt lat="44.37118" lon="5.94843">
        <ele>571.6408691</ele>
        <time>2012-02-28T12:54:39Z</time>
      </trkpt>
      <trkpt lat="44.37156" lon="5.94894">
        <ele>574.5251465</ele>
        <time>2012-02-28T12:55:02Z</time>
      </trkpt>
      <trkpt lat="44.37195" lon="5.94903">
        <ele>577.4091797</ele>
        <time>2012-02-28T12:55:19Z</time>
      </trkpt>
      <trkpt lat="44.37235" lon="5.9491">
        <ele>579.8122559</ele>
        <time>2012-02-28T12:55:36Z</time>
      </trkpt>
      <trkpt lat="44.37261" lon="5.94915">
        <ele>579.8122559</ele>
        <time>2012-02-28T12:55:48Z</time>
      </trkpt>
      <trkpt lat="44.37297" lon="5.94922">
        <ele>583.1767578</ele>
        <time>2012-02-28T12:56:05Z</time>
      </trkpt>
      <trkpt lat="44.37313" lon="5.94926">
        <ele>585.0996094</ele>
        <time>2012-02-28T12:56:13Z</time>
      </trkpt>
      <trkpt lat="44.3735" lon="5.94946">
        <ele>586.5415039</ele>
        <time>2012-02-28T12:56:31Z</time>
      </trkpt>
      <trkpt lat="44.37386" lon="5.94993">
        <ele>585.0996094</ele>
        <time>2012-02-28T12:56:45Z</time>
      </trkpt>
      <trkpt lat="44.37447" lon="5.95082">
        <ele>584.6188965</ele>
        <time>2012-02-28T12:57:01Z</time>
      </trkpt>
      <trkpt lat="44.37481" lon="5.95119">
        <ele>583.6574707</ele>
        <time>2012-02-28T12:57:08Z</time>
      </trkpt>
      <trkpt lat="44.37551" lon="5.95149">
        <ele>581.2543945</ele>
        <time>2012-02-28T12:57:20Z</time>
      </trkpt>
      <trkpt lat="44.37574" lon="5.95143">
        <ele>581.2543945</ele>
        <time>2012-02-28T12:57:25Z</time>
      </trkpt>
      <trkpt lat="44.37582" lon="5.9514">
        <ele>581.7348633</ele>
        <time>2012-02-28T12:57:27Z</time>
      </trkpt>
      <trkpt lat="44.37605" lon="5.9513">
        <ele>581.2543945</ele>
        <time>2012-02-28T12:57:32Z</time>
      </trkpt>
      <trkpt lat="44.37615" lon="5.95126">
        <ele>580.7736816</ele>
        <time>2012-02-28T12:57:34Z</time>
      </trkpt>
      <trkpt lat="44.37712" lon="5.95081">
        <ele>578.3703613</ele>
        <time>2012-02-28T12:57:50Z</time>
      </trkpt>
      <trkpt lat="44.37776" lon="5.95051">
        <ele>575.0058594</ele>
        <time>2012-02-28T12:57:58Z</time>
      </trkpt>
      <trkpt lat="44.37792" lon="5.9504">
        <ele>574.0444336</ele>
        <time>2012-02-28T12:58:00Z</time>
      </trkpt>
      <trkpt lat="44.37802" lon="5.95025">
        <ele>573.083252</ele>
        <time>2012-02-28T12:58:02Z</time>
      </trkpt>
      <trkpt lat="44.37811" lon="5.9499">
        <ele>571.1604004</ele>
        <time>2012-02-28T12:58:05Z</time>
      </trkpt>
      <trkpt lat="44.37821" lon="5.94935">
        <ele>568.7570801</ele>
        <time>2012-02-28T12:58:09Z</time>
      </trkpt>
      <trkpt lat="44.37829" lon="5.94878">
        <ele>566.3537598</ele>
        <time>2012-02-28T12:58:13Z</time>
      </trkpt>
      <trkpt lat="44.37832" lon="5.94837">
        <ele>563.4699707</ele>
        <time>2012-02-28T12:58:16Z</time>
      </trkpt>
      <trkpt lat="44.37833" lon="5.94826">
        <ele>562.0280762</ele>
        <time>2012-02-28T12:58:17Z</time>
      </trkpt>
      <trkpt lat="44.3786" lon="5.94778">
        <ele>559.144043</ele>
        <time>2012-02-28T12:58:23Z</time>
      </trkpt>
      <trkpt lat="44.37875" lon="5.94767">
        <ele>558.6633301</ele>
        <time>2012-02-28T12:58:25Z</time>
      </trkpt>
      <trkpt lat="44.37901" lon="5.94728">
        <ele>556.2600098</ele>
        <time>2012-02-28T12:58:29Z</time>
      </trkpt>
      <trkpt lat="44.37913" lon="5.94708">
        <ele>555.298584</ele>
        <time>2012-02-28T12:58:31Z</time>
      </trkpt>
      <trkpt lat="44.37962" lon="5.94666">
        <ele>553.8566895</ele>
        <time>2012-02-28T12:58:37Z</time>
      </trkpt>
      <trkpt lat="44.3798" lon="5.9466">
        <ele>552.8952637</ele>
        <time>2012-02-28T12:58:39Z</time>
      </trkpt>
      <trkpt lat="44.38013" lon="5.94641">
        <ele>550.9726563</ele>
        <time>2012-02-28T12:58:43Z</time>
      </trkpt>
      <trkpt lat="44.38027" lon="5.94604">
        <ele>551.4533691</ele>
        <time>2012-02-28T12:58:47Z</time>
      </trkpt>
      <trkpt lat="44.38067" lon="5.94475">
        <ele>551.4533691</ele>
        <time>2012-02-28T12:59:02Z</time>
      </trkpt>
      <trkpt lat="44.38078" lon="5.94457">
        <ele>551.934082</ele>
        <time>2012-02-28T12:59:05Z</time>
      </trkpt>
      <trkpt lat="44.38088" lon="5.94449">
        <ele>550.4921875</ele>
        <time>2012-02-28T12:59:07Z</time>
      </trkpt>
      <trkpt lat="44.38108" lon="5.94431">
        <ele>550.9726563</ele>
        <time>2012-02-28T12:59:11Z</time>
      </trkpt>
      <trkpt lat="44.38183" lon="5.94362">
        <ele>549.0500488</ele>
        <time>2012-02-28T12:59:25Z</time>
      </trkpt>
      <trkpt lat="44.38222" lon="5.94321">
        <ele>548.5693359</ele>
        <time>2012-02-28T12:59:33Z</time>
      </trkpt>
      <trkpt lat="44.38235" lon="5.94296">
        <ele>550.0114746</ele>
        <time>2012-02-28T12:59:37Z</time>
      </trkpt>
      <trkpt lat="44.38285" lon="5.94196">
        <ele>550.0114746</ele>
        <time>2012-02-28T12:59:56Z</time>
      </trkpt>
      <trkpt lat="44.38289" lon="5.94187">
        <ele>551.4533691</ele>
        <time>2012-02-28T12:59:58Z</time>
      </trkpt>
      <trkpt lat="44.38327" lon="5.94141">
        <ele>553.3759766</ele>
        <time>2012-02-28T13:00:15Z</time>
      </trkpt>
      <trkpt lat="44.3836" lon="5.94177">
        <ele>556.2600098</ele>
        <time>2012-02-28T13:00:29Z</time>
      </trkpt>
      <trkpt lat="44.38376" lon="5.94217">
        <ele>558.6633301</ele>
        <time>2012-02-28T13:00:42Z</time>
      </trkpt>
      <trkpt lat="44.38407" lon="5.94248">
        <ele>560.5859375</ele>
        <time>2012-02-28T13:00:58Z</time>
      </trkpt>
      <trkpt lat="44.38459" lon="5.94281">
        <ele>561.0666504</ele>
        <time>2012-02-28T13:01:21Z</time>
      </trkpt>
      <trkpt lat="44.38492" lon="5.94262">
        <ele>563.4699707</ele>
        <time>2012-02-28T13:01:35Z</time>
      </trkpt>
      <trkpt lat="44.38499" lon="5.94242">
        <ele>565.3925781</ele>
        <time>2012-02-28T13:01:42Z</time>
      </trkpt>
      <trkpt lat="44.38513" lon="5.94239">
        <ele>564.9118652</ele>
        <time>2012-02-28T13:01:47Z</time>
      </trkpt>
      <trkpt lat="44.38517" lon="5.94241">
        <ele>563.9504395</ele>
        <time>2012-02-28T13:02:02Z</time>
      </trkpt>
      <trkpt lat="44.38517" lon="5.94241">
        <ele>564.9118652</ele>
        <time>2012-02-28T13:02:58Z</time>
      </trkpt>
      <trkpt lat="44.38517" lon="5.94241">
        <ele>563.9504395</ele>
        <time>2012-02-28T13:03:16Z</time>
      </trkpt>
    </trkseg>
  </trk>
</gpx>